<?xml version="1.0" encoding="UTF-8" standalone="no" ?>
<gpx xmlns="http://www.topografix.com/GPX/1/1" xmlns:xsi="http://www.w3.org/2001/XMLSchema-instance" xsi:schemaLocation="http://www.topografix.com/GPX/1/1 http://www.topografix.com/GPX/1/1/gpx.xsd" version="1.1" creator="VisuGPX - https://www.visugpx.com">
  <metadata>
    <name>Rando à Bez-Bedène</name>
    <desc><![CDATA[incroyable!]]></desc>
  </metadata>
  <trk>
    <name><![CDATA[Rando à Bez-Bedène_1]]></name>
    <trkseg>
      <trkpt lat="44.66642" lon="2.64601">
        <ele>539.6</ele>
        <time>2022-04-28T08:41:24Z</time>
      </trkpt>
      <trkpt lat="44.66639" lon="2.64601">
        <ele>539</ele>
        <time>2022-04-28T08:41:34Z</time>
      </trkpt>
      <trkpt lat="44.66638" lon="2.646">
        <ele>539</ele>
        <time>2022-04-28T08:41:38Z</time>
      </trkpt>
      <trkpt lat="44.66624" lon="2.64598">
        <ele>539</ele>
        <time>2022-04-28T08:41:52Z</time>
      </trkpt>
      <trkpt lat="44.66615" lon="2.64595">
        <ele>538.4</ele>
        <time>2022-04-28T08:42:02Z</time>
      </trkpt>
      <trkpt lat="44.66614" lon="2.64594">
        <ele>538.2</ele>
        <time>2022-04-28T08:42:05Z</time>
      </trkpt>
      <trkpt lat="44.66614" lon="2.64594">
        <ele>538</ele>
        <time>2022-04-28T08:42:10Z</time>
      </trkpt>
      <trkpt lat="44.66613" lon="2.64594">
        <ele>538.4</ele>
        <time>2022-04-28T08:42:19Z</time>
      </trkpt>
      <trkpt lat="44.66611" lon="2.64592">
        <ele>538.2</ele>
        <time>2022-04-28T08:42:37Z</time>
      </trkpt>
      <trkpt lat="44.66612" lon="2.64592">
        <ele>538.2</ele>
        <time>2022-04-28T08:42:56Z</time>
      </trkpt>
      <trkpt lat="44.66613" lon="2.64591">
        <ele>538.2</ele>
        <time>2022-04-28T08:43:08Z</time>
      </trkpt>
      <trkpt lat="44.66614" lon="2.64588">
        <ele>538</ele>
        <time>2022-04-28T08:43:22Z</time>
      </trkpt>
      <trkpt lat="44.6661" lon="2.64582">
        <ele>538</ele>
        <time>2022-04-28T08:43:30Z</time>
      </trkpt>
      <trkpt lat="44.66608" lon="2.64579">
        <ele>538</ele>
        <time>2022-04-28T08:43:35Z</time>
      </trkpt>
      <trkpt lat="44.66607" lon="2.64578">
        <ele>537.8</ele>
        <time>2022-04-28T08:43:37Z</time>
      </trkpt>
      <trkpt lat="44.66607" lon="2.64577">
        <ele>538</ele>
        <time>2022-04-28T08:43:45Z</time>
      </trkpt>
      <trkpt lat="44.66604" lon="2.64572">
        <ele>537</ele>
        <time>2022-04-28T08:43:56Z</time>
      </trkpt>
      <trkpt lat="44.66603" lon="2.64571">
        <ele>536.8</ele>
        <time>2022-04-28T08:43:57Z</time>
      </trkpt>
      <trkpt lat="44.66602" lon="2.64569">
        <ele>536.6</ele>
        <time>2022-04-28T08:43:59Z</time>
      </trkpt>
      <trkpt lat="44.66601" lon="2.64568">
        <ele>536.2</ele>
        <time>2022-04-28T08:44:02Z</time>
      </trkpt>
      <trkpt lat="44.66597" lon="2.64565">
        <ele>535.8</ele>
        <time>2022-04-28T08:44:07Z</time>
      </trkpt>
      <trkpt lat="44.66596" lon="2.64565">
        <ele>535.8</ele>
        <time>2022-04-28T08:44:08Z</time>
      </trkpt>
      <trkpt lat="44.66596" lon="2.64564">
        <ele>535.6</ele>
        <time>2022-04-28T08:44:09Z</time>
      </trkpt>
      <trkpt lat="44.66593" lon="2.64559">
        <ele>534.8</ele>
        <time>2022-04-28T08:44:15Z</time>
      </trkpt>
      <trkpt lat="44.66588" lon="2.64551">
        <ele>533.8</ele>
        <time>2022-04-28T08:44:24Z</time>
      </trkpt>
      <trkpt lat="44.66587" lon="2.64549">
        <ele>533.6</ele>
        <time>2022-04-28T08:44:26Z</time>
      </trkpt>
      <trkpt lat="44.66582" lon="2.64542">
        <ele>532.6</ele>
        <time>2022-04-28T08:44:33Z</time>
      </trkpt>
      <trkpt lat="44.66578" lon="2.64538">
        <ele>531.6</ele>
        <time>2022-04-28T08:44:39Z</time>
      </trkpt>
      <trkpt lat="44.66577" lon="2.64535">
        <ele>531</ele>
        <time>2022-04-28T08:44:44Z</time>
      </trkpt>
      <trkpt lat="44.66576" lon="2.64535">
        <ele>531</ele>
        <time>2022-04-28T08:44:47Z</time>
      </trkpt>
      <trkpt lat="44.66576" lon="2.64533">
        <ele>531</ele>
        <time>2022-04-28T08:44:49Z</time>
      </trkpt>
      <trkpt lat="44.66571" lon="2.64527">
        <ele>530.4</ele>
        <time>2022-04-28T08:44:55Z</time>
      </trkpt>
      <trkpt lat="44.66567" lon="2.64522">
        <ele>529.8</ele>
        <time>2022-04-28T08:44:59Z</time>
      </trkpt>
      <trkpt lat="44.66564" lon="2.64518">
        <ele>529.4</ele>
        <time>2022-04-28T08:45:04Z</time>
      </trkpt>
      <trkpt lat="44.66561" lon="2.64512">
        <ele>528.2</ele>
        <time>2022-04-28T08:45:10Z</time>
      </trkpt>
      <trkpt lat="44.6656" lon="2.64509">
        <ele>527.6</ele>
        <time>2022-04-28T08:45:13Z</time>
      </trkpt>
      <trkpt lat="44.66557" lon="2.64503">
        <ele>527</ele>
        <time>2022-04-28T08:45:18Z</time>
      </trkpt>
      <trkpt lat="44.66554" lon="2.64496">
        <ele>525.8</ele>
        <time>2022-04-28T08:45:25Z</time>
      </trkpt>
      <trkpt lat="44.66553" lon="2.64493">
        <ele>525.4</ele>
        <time>2022-04-28T08:45:28Z</time>
      </trkpt>
      <trkpt lat="44.66549" lon="2.64487">
        <ele>524.8</ele>
        <time>2022-04-28T08:45:34Z</time>
      </trkpt>
      <trkpt lat="44.66546" lon="2.64478">
        <ele>523.8</ele>
        <time>2022-04-28T08:45:42Z</time>
      </trkpt>
      <trkpt lat="44.66545" lon="2.64475">
        <ele>523.8</ele>
        <time>2022-04-28T08:45:44Z</time>
      </trkpt>
      <trkpt lat="44.66542" lon="2.64472">
        <ele>523.6</ele>
        <time>2022-04-28T08:45:49Z</time>
      </trkpt>
      <trkpt lat="44.66543" lon="2.6447">
        <ele>523.6</ele>
        <time>2022-04-28T08:45:53Z</time>
      </trkpt>
      <trkpt lat="44.66544" lon="2.64468">
        <ele>522.6</ele>
        <time>2022-04-28T08:45:56Z</time>
      </trkpt>
      <trkpt lat="44.66547" lon="2.64467">
        <ele>521.6</ele>
        <time>2022-04-28T08:46:05Z</time>
      </trkpt>
      <trkpt lat="44.66547" lon="2.64466">
        <ele>521</ele>
        <time>2022-04-28T08:46:17Z</time>
      </trkpt>
      <trkpt lat="44.66547" lon="2.64466">
        <ele>521</ele>
        <time>2022-04-28T08:46:34Z</time>
      </trkpt>
      <trkpt lat="44.66545" lon="2.64468">
        <ele>522.6</ele>
        <time>2022-04-28T08:46:38Z</time>
      </trkpt>
      <trkpt lat="44.66543" lon="2.64468">
        <ele>522.6</ele>
        <time>2022-04-28T08:46:41Z</time>
      </trkpt>
      <trkpt lat="44.66538" lon="2.64466">
        <ele>523.4</ele>
        <time>2022-04-28T08:46:47Z</time>
      </trkpt>
      <trkpt lat="44.66535" lon="2.64463">
        <ele>523.2</ele>
        <time>2022-04-28T08:46:51Z</time>
      </trkpt>
      <trkpt lat="44.66527" lon="2.64455">
        <ele>523</ele>
        <time>2022-04-28T08:47:03Z</time>
      </trkpt>
      <trkpt lat="44.66516" lon="2.64446">
        <ele>523</ele>
        <time>2022-04-28T08:47:17Z</time>
      </trkpt>
      <trkpt lat="44.66515" lon="2.64445">
        <ele>523</ele>
        <time>2022-04-28T08:47:19Z</time>
      </trkpt>
      <trkpt lat="44.66509" lon="2.64434">
        <ele>523.2</ele>
        <time>2022-04-28T08:47:30Z</time>
      </trkpt>
      <trkpt lat="44.66496" lon="2.64418">
        <ele>523</ele>
        <time>2022-04-28T08:47:46Z</time>
      </trkpt>
      <trkpt lat="44.66487" lon="2.64401">
        <ele>523</ele>
        <time>2022-04-28T08:48:00Z</time>
      </trkpt>
      <trkpt lat="44.6648" lon="2.64385">
        <ele>522.8</ele>
        <time>2022-04-28T08:48:15Z</time>
      </trkpt>
      <trkpt lat="44.66473" lon="2.64371">
        <ele>522.2</ele>
        <time>2022-04-28T08:48:28Z</time>
      </trkpt>
      <trkpt lat="44.66468" lon="2.6436">
        <ele>521.6</ele>
        <time>2022-04-28T08:48:39Z</time>
      </trkpt>
      <trkpt lat="44.66467" lon="2.64359">
        <ele>521.6</ele>
        <time>2022-04-28T08:48:41Z</time>
      </trkpt>
      <trkpt lat="44.66458" lon="2.6435">
        <ele>521.2</ele>
        <time>2022-04-28T08:48:53Z</time>
      </trkpt>
      <trkpt lat="44.66457" lon="2.64349">
        <ele>521.2</ele>
        <time>2022-04-28T08:48:56Z</time>
      </trkpt>
      <trkpt lat="44.66456" lon="2.6435">
        <ele>521.2</ele>
        <time>2022-04-28T08:49:01Z</time>
      </trkpt>
      <trkpt lat="44.66458" lon="2.64351">
        <ele>521.4</ele>
        <time>2022-04-28T08:49:14Z</time>
      </trkpt>
      <trkpt lat="44.66457" lon="2.6435">
        <ele>521.2</ele>
        <time>2022-04-28T08:49:24Z</time>
      </trkpt>
      <trkpt lat="44.6645" lon="2.64341">
        <ele>521</ele>
        <time>2022-04-28T08:49:33Z</time>
      </trkpt>
      <trkpt lat="44.66445" lon="2.64335">
        <ele>521</ele>
        <time>2022-04-28T08:49:43Z</time>
      </trkpt>
      <trkpt lat="44.66439" lon="2.64332">
        <ele>520.6</ele>
        <time>2022-04-28T08:49:54Z</time>
      </trkpt>
      <trkpt lat="44.66432" lon="2.64323">
        <ele>520</ele>
        <time>2022-04-28T08:50:05Z</time>
      </trkpt>
      <trkpt lat="44.66423" lon="2.64314">
        <ele>519.6</ele>
        <time>2022-04-28T08:50:18Z</time>
      </trkpt>
      <trkpt lat="44.6642" lon="2.64307">
        <ele>519.4</ele>
        <time>2022-04-28T08:50:27Z</time>
      </trkpt>
      <trkpt lat="44.66419" lon="2.64306">
        <ele>519.2</ele>
        <time>2022-04-28T08:50:29Z</time>
      </trkpt>
      <trkpt lat="44.66416" lon="2.64303">
        <ele>518.4</ele>
        <time>2022-04-28T08:50:36Z</time>
      </trkpt>
      <trkpt lat="44.66415" lon="2.64298">
        <ele>517.8</ele>
        <time>2022-04-28T08:50:41Z</time>
      </trkpt>
      <trkpt lat="44.66414" lon="2.64293">
        <ele>517.4</ele>
        <time>2022-04-28T08:50:45Z</time>
      </trkpt>
      <trkpt lat="44.66412" lon="2.64288">
        <ele>517</ele>
        <time>2022-04-28T08:50:52Z</time>
      </trkpt>
      <trkpt lat="44.66411" lon="2.64287">
        <ele>516.4</ele>
        <time>2022-04-28T08:50:59Z</time>
      </trkpt>
      <trkpt lat="44.66412" lon="2.64286">
        <ele>516.2</ele>
        <time>2022-04-28T08:51:02Z</time>
      </trkpt>
      <trkpt lat="44.66412" lon="2.64287">
        <ele>515.8</ele>
        <time>2022-04-28T08:51:13Z</time>
      </trkpt>
      <trkpt lat="44.66408" lon="2.64285">
        <ele>515.4</ele>
        <time>2022-04-28T08:51:19Z</time>
      </trkpt>
      <trkpt lat="44.66404" lon="2.64283">
        <ele>514.6</ele>
        <time>2022-04-28T08:51:24Z</time>
      </trkpt>
      <trkpt lat="44.66401" lon="2.64282">
        <ele>514.4</ele>
        <time>2022-04-28T08:51:28Z</time>
      </trkpt>
      <trkpt lat="44.66399" lon="2.64281">
        <ele>514.2</ele>
        <time>2022-04-28T08:51:30Z</time>
      </trkpt>
      <trkpt lat="44.66397" lon="2.64281">
        <ele>513.2</ele>
        <time>2022-04-28T08:51:34Z</time>
      </trkpt>
      <trkpt lat="44.66393" lon="2.6428">
        <ele>512.4</ele>
        <time>2022-04-28T08:51:39Z</time>
      </trkpt>
      <trkpt lat="44.66391" lon="2.64278">
        <ele>512</ele>
        <time>2022-04-28T08:51:42Z</time>
      </trkpt>
      <trkpt lat="44.66388" lon="2.64276">
        <ele>511.8</ele>
        <time>2022-04-28T08:51:45Z</time>
      </trkpt>
      <trkpt lat="44.66386" lon="2.64275">
        <ele>511.8</ele>
        <time>2022-04-28T08:51:47Z</time>
      </trkpt>
      <trkpt lat="44.66384" lon="2.64275">
        <ele>511.6</ele>
        <time>2022-04-28T08:51:49Z</time>
      </trkpt>
      <trkpt lat="44.6638" lon="2.64273">
        <ele>511.6</ele>
        <time>2022-04-28T08:51:53Z</time>
      </trkpt>
      <trkpt lat="44.66373" lon="2.64271">
        <ele>511</ele>
        <time>2022-04-28T08:52:01Z</time>
      </trkpt>
      <trkpt lat="44.66372" lon="2.6427">
        <ele>511</ele>
        <time>2022-04-28T08:52:03Z</time>
      </trkpt>
      <trkpt lat="44.66366" lon="2.64266">
        <ele>510</ele>
        <time>2022-04-28T08:52:09Z</time>
      </trkpt>
      <trkpt lat="44.66363" lon="2.64263">
        <ele>509</ele>
        <time>2022-04-28T08:52:13Z</time>
      </trkpt>
      <trkpt lat="44.6636" lon="2.64261">
        <ele>508.4</ele>
        <time>2022-04-28T08:52:16Z</time>
      </trkpt>
      <trkpt lat="44.66357" lon="2.64256">
        <ele>507.8</ele>
        <time>2022-04-28T08:52:21Z</time>
      </trkpt>
      <trkpt lat="44.66351" lon="2.64252">
        <ele>506.8</ele>
        <time>2022-04-28T08:52:27Z</time>
      </trkpt>
      <trkpt lat="44.66351" lon="2.64251">
        <ele>506.6</ele>
        <time>2022-04-28T08:52:28Z</time>
      </trkpt>
      <trkpt lat="44.66349" lon="2.6425">
        <ele>506.4</ele>
        <time>2022-04-28T08:52:30Z</time>
      </trkpt>
      <trkpt lat="44.66344" lon="2.64242">
        <ele>506.8</ele>
        <time>2022-04-28T08:52:39Z</time>
      </trkpt>
      <trkpt lat="44.66344" lon="2.6424">
        <ele>506.8</ele>
        <time>2022-04-28T08:52:40Z</time>
      </trkpt>
      <trkpt lat="44.66341" lon="2.64234">
        <ele>506.6</ele>
        <time>2022-04-28T08:52:46Z</time>
      </trkpt>
      <trkpt lat="44.66341" lon="2.6423">
        <ele>507</ele>
        <time>2022-04-28T08:52:50Z</time>
      </trkpt>
      <trkpt lat="44.6634" lon="2.64227">
        <ele>507.8</ele>
        <time>2022-04-28T08:52:54Z</time>
      </trkpt>
      <trkpt lat="44.66339" lon="2.64221">
        <ele>508.4</ele>
        <time>2022-04-28T08:53:00Z</time>
      </trkpt>
      <trkpt lat="44.66338" lon="2.64219">
        <ele>509</ele>
        <time>2022-04-28T08:53:03Z</time>
      </trkpt>
      <trkpt lat="44.66336" lon="2.64215">
        <ele>508.8</ele>
        <time>2022-04-28T08:53:10Z</time>
      </trkpt>
      <trkpt lat="44.66331" lon="2.64209">
        <ele>508.4</ele>
        <time>2022-04-28T08:53:21Z</time>
      </trkpt>
      <trkpt lat="44.66328" lon="2.64207">
        <ele>507.8</ele>
        <time>2022-04-28T08:53:25Z</time>
      </trkpt>
      <trkpt lat="44.66328" lon="2.64205">
        <ele>508.2</ele>
        <time>2022-04-28T08:53:31Z</time>
      </trkpt>
      <trkpt lat="44.66328" lon="2.64205">
        <ele>507.4</ele>
        <time>2022-04-28T08:53:45Z</time>
      </trkpt>
      <trkpt lat="44.66329" lon="2.64205">
        <ele>507.8</ele>
        <time>2022-04-28T08:54:03Z</time>
      </trkpt>
      <trkpt lat="44.66331" lon="2.64203">
        <ele>507.6</ele>
        <time>2022-04-28T08:54:18Z</time>
      </trkpt>
      <trkpt lat="44.66331" lon="2.64202">
        <ele>507</ele>
        <time>2022-04-28T08:54:30Z</time>
      </trkpt>
      <trkpt lat="44.66331" lon="2.64201">
        <ele>507.2</ele>
        <time>2022-04-28T08:54:48Z</time>
      </trkpt>
      <trkpt lat="44.66332" lon="2.64199">
        <ele>507.2</ele>
        <time>2022-04-28T08:55:07Z</time>
      </trkpt>
      <trkpt lat="44.66335" lon="2.64201">
        <ele>507.2</ele>
        <time>2022-04-28T08:55:26Z</time>
      </trkpt>
      <trkpt lat="44.66341" lon="2.64198">
        <ele>507.2</ele>
        <time>2022-04-28T08:55:39Z</time>
      </trkpt>
      <trkpt lat="44.66344" lon="2.64189">
        <ele>507.2</ele>
        <time>2022-04-28T08:55:49Z</time>
      </trkpt>
      <trkpt lat="44.66345" lon="2.64186">
        <ele>504.2</ele>
        <time>2022-04-28T08:55:52Z</time>
      </trkpt>
      <trkpt lat="44.66346" lon="2.64185">
        <ele>504.2</ele>
        <time>2022-04-28T08:55:53Z</time>
      </trkpt>
      <trkpt lat="44.66347" lon="2.64179">
        <ele>503.8</ele>
        <time>2022-04-28T08:55:58Z</time>
      </trkpt>
      <trkpt lat="44.66349" lon="2.64175">
        <ele>504</ele>
        <time>2022-04-28T08:56:02Z</time>
      </trkpt>
      <trkpt lat="44.6635" lon="2.64169">
        <ele>505.2</ele>
        <time>2022-04-28T08:56:08Z</time>
      </trkpt>
      <trkpt lat="44.66353" lon="2.64166">
        <ele>506</ele>
        <time>2022-04-28T08:56:13Z</time>
      </trkpt>
      <trkpt lat="44.66353" lon="2.64166">
        <ele>506</ele>
        <time>2022-04-28T08:56:14Z</time>
      </trkpt>
      <trkpt lat="44.66354" lon="2.64167">
        <ele>506.2</ele>
        <time>2022-04-28T08:56:17Z</time>
      </trkpt>
      <trkpt lat="44.66354" lon="2.64168">
        <ele>506.4</ele>
        <time>2022-04-28T08:56:21Z</time>
      </trkpt>
      <trkpt lat="44.66355" lon="2.64166">
        <ele>506.6</ele>
        <time>2022-04-28T08:56:35Z</time>
      </trkpt>
      <trkpt lat="44.6636" lon="2.64161">
        <ele>505.4</ele>
        <time>2022-04-28T08:56:46Z</time>
      </trkpt>
      <trkpt lat="44.66361" lon="2.64161">
        <ele>505.2</ele>
        <time>2022-04-28T08:56:47Z</time>
      </trkpt>
      <trkpt lat="44.6636" lon="2.64156">
        <ele>504.6</ele>
        <time>2022-04-28T08:56:55Z</time>
      </trkpt>
      <trkpt lat="44.6636" lon="2.64154">
        <ele>504.2</ele>
        <time>2022-04-28T08:56:58Z</time>
      </trkpt>
      <trkpt lat="44.66358" lon="2.6415">
        <ele>503.2</ele>
        <time>2022-04-28T08:57:05Z</time>
      </trkpt>
      <trkpt lat="44.66358" lon="2.6415">
        <ele>503.2</ele>
        <time>2022-04-28T08:57:06Z</time>
      </trkpt>
      <trkpt lat="44.66357" lon="2.64147">
        <ele>502.2</ele>
        <time>2022-04-28T08:57:16Z</time>
      </trkpt>
      <trkpt lat="44.66356" lon="2.64147">
        <ele>502</ele>
        <time>2022-04-28T08:57:23Z</time>
      </trkpt>
      <trkpt lat="44.66355" lon="2.64145">
        <ele>501.4</ele>
        <time>2022-04-28T08:57:27Z</time>
      </trkpt>
      <trkpt lat="44.66355" lon="2.64144">
        <ele>501</ele>
        <time>2022-04-28T08:57:30Z</time>
      </trkpt>
      <trkpt lat="44.66354" lon="2.64143">
        <ele>501.8</ele>
        <time>2022-04-28T08:57:38Z</time>
      </trkpt>
      <trkpt lat="44.66352" lon="2.64139">
        <ele>500</ele>
        <time>2022-04-28T08:57:45Z</time>
      </trkpt>
      <trkpt lat="44.66352" lon="2.64136">
        <ele>499.6</ele>
        <time>2022-04-28T08:57:49Z</time>
      </trkpt>
      <trkpt lat="44.66355" lon="2.64134">
        <ele>499</ele>
        <time>2022-04-28T08:57:59Z</time>
      </trkpt>
      <trkpt lat="44.66355" lon="2.64133">
        <ele>499</ele>
        <time>2022-04-28T08:58:00Z</time>
      </trkpt>
      <trkpt lat="44.66356" lon="2.64134">
        <ele>498.8</ele>
        <time>2022-04-28T08:58:15Z</time>
      </trkpt>
      <trkpt lat="44.66356" lon="2.64128">
        <ele>497.8</ele>
        <time>2022-04-28T08:58:26Z</time>
      </trkpt>
      <trkpt lat="44.66356" lon="2.64128">
        <ele>497.6</ele>
        <time>2022-04-28T08:58:27Z</time>
      </trkpt>
      <trkpt lat="44.66356" lon="2.64129">
        <ele>496.8</ele>
        <time>2022-04-28T08:58:35Z</time>
      </trkpt>
      <trkpt lat="44.66355" lon="2.64129">
        <ele>496.8</ele>
        <time>2022-04-28T08:58:39Z</time>
      </trkpt>
      <trkpt lat="44.66353" lon="2.64129">
        <ele>496.8</ele>
        <time>2022-04-28T08:58:52Z</time>
      </trkpt>
      <trkpt lat="44.66353" lon="2.64131">
        <ele>495.8</ele>
        <time>2022-04-28T08:59:07Z</time>
      </trkpt>
      <trkpt lat="44.66352" lon="2.64131">
        <ele>495.8</ele>
        <time>2022-04-28T08:59:08Z</time>
      </trkpt>
      <trkpt lat="44.66349" lon="2.64128">
        <ele>494.4</ele>
        <time>2022-04-28T08:59:17Z</time>
      </trkpt>
      <trkpt lat="44.66349" lon="2.64127">
        <ele>494.2</ele>
        <time>2022-04-28T08:59:18Z</time>
      </trkpt>
      <trkpt lat="44.66347" lon="2.64126">
        <ele>493.2</ele>
        <time>2022-04-28T08:59:24Z</time>
      </trkpt>
      <trkpt lat="44.66345" lon="2.64123">
        <ele>492.4</ele>
        <time>2022-04-28T08:59:29Z</time>
      </trkpt>
      <trkpt lat="44.66345" lon="2.64123">
        <ele>492</ele>
        <time>2022-04-28T08:59:30Z</time>
      </trkpt>
      <trkpt lat="44.66343" lon="2.64121">
        <ele>491</ele>
        <time>2022-04-28T08:59:39Z</time>
      </trkpt>
      <trkpt lat="44.66342" lon="2.6412">
        <ele>491</ele>
        <time>2022-04-28T08:59:42Z</time>
      </trkpt>
      <trkpt lat="44.66342" lon="2.64121">
        <ele>491.4</ele>
        <time>2022-04-28T08:59:57Z</time>
      </trkpt>
      <trkpt lat="44.66343" lon="2.64122">
        <ele>492</ele>
        <time>2022-04-28T09:00:04Z</time>
      </trkpt>
      <trkpt lat="44.66347" lon="2.64124">
        <ele>493</ele>
        <time>2022-04-28T09:00:12Z</time>
      </trkpt>
      <trkpt lat="44.66348" lon="2.64124">
        <ele>493.2</ele>
        <time>2022-04-28T09:00:13Z</time>
      </trkpt>
      <trkpt lat="44.66349" lon="2.64124">
        <ele>494.2</ele>
        <time>2022-04-28T09:00:17Z</time>
      </trkpt>
      <trkpt lat="44.6635" lon="2.64126">
        <ele>495.2</ele>
        <time>2022-04-28T09:00:23Z</time>
      </trkpt>
      <trkpt lat="44.66352" lon="2.64127">
        <ele>495.6</ele>
        <time>2022-04-28T09:00:28Z</time>
      </trkpt>
      <trkpt lat="44.66349" lon="2.64129">
        <ele>495.4</ele>
        <time>2022-04-28T09:00:45Z</time>
      </trkpt>
      <trkpt lat="44.66352" lon="2.6413">
        <ele>496.6</ele>
        <time>2022-04-28T09:00:55Z</time>
      </trkpt>
      <trkpt lat="44.66355" lon="2.64132">
        <ele>496.6</ele>
        <time>2022-04-28T09:00:58Z</time>
      </trkpt>
      <trkpt lat="44.66355" lon="2.64136">
        <ele>497.8</ele>
        <time>2022-04-28T09:01:05Z</time>
      </trkpt>
      <trkpt lat="44.66354" lon="2.64137">
        <ele>498.2</ele>
        <time>2022-04-28T09:01:07Z</time>
      </trkpt>
      <trkpt lat="44.66353" lon="2.64143">
        <ele>498.8</ele>
        <time>2022-04-28T09:01:12Z</time>
      </trkpt>
      <trkpt lat="44.66355" lon="2.64146">
        <ele>499.2</ele>
        <time>2022-04-28T09:01:16Z</time>
      </trkpt>
      <trkpt lat="44.66355" lon="2.64147">
        <ele>499.4</ele>
        <time>2022-04-28T09:01:17Z</time>
      </trkpt>
      <trkpt lat="44.66355" lon="2.64147">
        <ele>499.8</ele>
        <time>2022-04-28T09:01:20Z</time>
      </trkpt>
      <trkpt lat="44.66356" lon="2.64148">
        <ele>502.2</ele>
        <time>2022-04-28T09:01:23Z</time>
      </trkpt>
      <trkpt lat="44.66356" lon="2.64152">
        <ele>502.6</ele>
        <time>2022-04-28T09:01:28Z</time>
      </trkpt>
      <trkpt lat="44.66358" lon="2.64155">
        <ele>503.4</ele>
        <time>2022-04-28T09:01:32Z</time>
      </trkpt>
      <trkpt lat="44.66357" lon="2.64157">
        <ele>504.2</ele>
        <time>2022-04-28T09:01:37Z</time>
      </trkpt>
      <trkpt lat="44.66358" lon="2.64158">
        <ele>504.6</ele>
        <time>2022-04-28T09:01:38Z</time>
      </trkpt>
      <trkpt lat="44.66359" lon="2.6416">
        <ele>505</ele>
        <time>2022-04-28T09:01:47Z</time>
      </trkpt>
      <trkpt lat="44.66363" lon="2.64166">
        <ele>503.6</ele>
        <time>2022-04-28T09:01:55Z</time>
      </trkpt>
      <trkpt lat="44.66363" lon="2.64167">
        <ele>503.4</ele>
        <time>2022-04-28T09:01:56Z</time>
      </trkpt>
      <trkpt lat="44.66364" lon="2.6417">
        <ele>502.8</ele>
        <time>2022-04-28T09:01:59Z</time>
      </trkpt>
      <trkpt lat="44.66364" lon="2.6417">
        <ele>502.6</ele>
        <time>2022-04-28T09:02:00Z</time>
      </trkpt>
      <trkpt lat="44.66365" lon="2.64173">
        <ele>502.4</ele>
        <time>2022-04-28T09:02:02Z</time>
      </trkpt>
      <trkpt lat="44.66365" lon="2.64174">
        <ele>501.8</ele>
        <time>2022-04-28T09:02:03Z</time>
      </trkpt>
      <trkpt lat="44.66366" lon="2.64176">
        <ele>501.2</ele>
        <time>2022-04-28T09:02:05Z</time>
      </trkpt>
      <trkpt lat="44.66368" lon="2.64179">
        <ele>500.4</ele>
        <time>2022-04-28T09:02:11Z</time>
      </trkpt>
      <trkpt lat="44.66371" lon="2.6418">
        <ele>500.2</ele>
        <time>2022-04-28T09:02:20Z</time>
      </trkpt>
      <trkpt lat="44.66372" lon="2.6418">
        <ele>500</ele>
        <time>2022-04-28T09:02:21Z</time>
      </trkpt>
      <trkpt lat="44.66375" lon="2.64184">
        <ele>499.2</ele>
        <time>2022-04-28T09:02:27Z</time>
      </trkpt>
      <trkpt lat="44.66375" lon="2.64184">
        <ele>499</ele>
        <time>2022-04-28T09:02:28Z</time>
      </trkpt>
      <trkpt lat="44.66379" lon="2.64187">
        <ele>498</ele>
        <time>2022-04-28T09:02:34Z</time>
      </trkpt>
      <trkpt lat="44.66379" lon="2.64187">
        <ele>498</ele>
        <time>2022-04-28T09:02:35Z</time>
      </trkpt>
      <trkpt lat="44.66381" lon="2.64188">
        <ele>496.8</ele>
        <time>2022-04-28T09:02:45Z</time>
      </trkpt>
      <trkpt lat="44.66382" lon="2.64189">
        <ele>496.8</ele>
        <time>2022-04-28T09:02:46Z</time>
      </trkpt>
      <trkpt lat="44.66389" lon="2.64194">
        <ele>496.4</ele>
        <time>2022-04-28T09:02:58Z</time>
      </trkpt>
      <trkpt lat="44.66392" lon="2.64195">
        <ele>496.4</ele>
        <time>2022-04-28T09:03:01Z</time>
      </trkpt>
      <trkpt lat="44.66393" lon="2.64197">
        <ele>496.4</ele>
        <time>2022-04-28T09:03:03Z</time>
      </trkpt>
      <trkpt lat="44.66398" lon="2.64205">
        <ele>498</ele>
        <time>2022-04-28T09:03:13Z</time>
      </trkpt>
      <trkpt lat="44.664" lon="2.64209">
        <ele>499</ele>
        <time>2022-04-28T09:03:18Z</time>
      </trkpt>
      <trkpt lat="44.66402" lon="2.6421">
        <ele>499.2</ele>
        <time>2022-04-28T09:03:20Z</time>
      </trkpt>
      <trkpt lat="44.66402" lon="2.64212">
        <ele>500</ele>
        <time>2022-04-28T09:03:23Z</time>
      </trkpt>
      <trkpt lat="44.66402" lon="2.64213">
        <ele>500</ele>
        <time>2022-04-28T09:03:24Z</time>
      </trkpt>
      <trkpt lat="44.66403" lon="2.64214">
        <ele>500.2</ele>
        <time>2022-04-28T09:03:27Z</time>
      </trkpt>
      <trkpt lat="44.66403" lon="2.64216">
        <ele>501.2</ele>
        <time>2022-04-28T09:03:41Z</time>
      </trkpt>
      <trkpt lat="44.66403" lon="2.64217">
        <ele>502.4</ele>
        <time>2022-04-28T09:03:45Z</time>
      </trkpt>
      <trkpt lat="44.66402" lon="2.6422">
        <ele>503.6</ele>
        <time>2022-04-28T09:03:52Z</time>
      </trkpt>
      <trkpt lat="44.66402" lon="2.64222">
        <ele>504.6</ele>
        <time>2022-04-28T09:03:55Z</time>
      </trkpt>
      <trkpt lat="44.66401" lon="2.64226">
        <ele>505.6</ele>
        <time>2022-04-28T09:04:02Z</time>
      </trkpt>
      <trkpt lat="44.66402" lon="2.64235">
        <ele>506.8</ele>
        <time>2022-04-28T09:04:14Z</time>
      </trkpt>
      <trkpt lat="44.66402" lon="2.64235">
        <ele>507</ele>
        <time>2022-04-28T09:04:15Z</time>
      </trkpt>
      <trkpt lat="44.66402" lon="2.64237">
        <ele>507.6</ele>
        <time>2022-04-28T09:04:25Z</time>
      </trkpt>
      <trkpt lat="44.66402" lon="2.64238">
        <ele>507.6</ele>
        <time>2022-04-28T09:04:36Z</time>
      </trkpt>
      <trkpt lat="44.66402" lon="2.64238">
        <ele>507.6</ele>
        <time>2022-04-28T09:04:38Z</time>
      </trkpt>
      <trkpt lat="44.66406" lon="2.64237">
        <ele>506.4</ele>
        <time>2022-04-28T09:04:48Z</time>
      </trkpt>
      <trkpt lat="44.66407" lon="2.64237">
        <ele>505.8</ele>
        <time>2022-04-28T09:04:51Z</time>
      </trkpt>
      <trkpt lat="44.66408" lon="2.64236">
        <ele>505.4</ele>
        <time>2022-04-28T09:05:01Z</time>
      </trkpt>
      <trkpt lat="44.66412" lon="2.64238">
        <ele>505</ele>
        <time>2022-04-28T09:05:12Z</time>
      </trkpt>
      <trkpt lat="44.66413" lon="2.6424">
        <ele>504.6</ele>
        <time>2022-04-28T09:05:14Z</time>
      </trkpt>
      <trkpt lat="44.66413" lon="2.64244">
        <ele>504</ele>
        <time>2022-04-28T09:05:19Z</time>
      </trkpt>
      <trkpt lat="44.66414" lon="2.64246">
        <ele>503.6</ele>
        <time>2022-04-28T09:05:21Z</time>
      </trkpt>
      <trkpt lat="44.66414" lon="2.64247">
        <ele>503.2</ele>
        <time>2022-04-28T09:05:22Z</time>
      </trkpt>
      <trkpt lat="44.66415" lon="2.64249">
        <ele>502.6</ele>
        <time>2022-04-28T09:05:24Z</time>
      </trkpt>
      <trkpt lat="44.66416" lon="2.64249">
        <ele>502.4</ele>
        <time>2022-04-28T09:05:25Z</time>
      </trkpt>
      <trkpt lat="44.66417" lon="2.64251">
        <ele>501.8</ele>
        <time>2022-04-28T09:05:27Z</time>
      </trkpt>
      <trkpt lat="44.66418" lon="2.64252">
        <ele>501.4</ele>
        <time>2022-04-28T09:05:29Z</time>
      </trkpt>
      <trkpt lat="44.66419" lon="2.64253">
        <ele>501.2</ele>
        <time>2022-04-28T09:05:30Z</time>
      </trkpt>
      <trkpt lat="44.66424" lon="2.6426">
        <ele>500.4</ele>
        <time>2022-04-28T09:05:36Z</time>
      </trkpt>
      <trkpt lat="44.66425" lon="2.64261">
        <ele>500.2</ele>
        <time>2022-04-28T09:05:37Z</time>
      </trkpt>
      <trkpt lat="44.66425" lon="2.64261">
        <ele>500.2</ele>
        <time>2022-04-28T09:05:39Z</time>
      </trkpt>
      <trkpt lat="44.66425" lon="2.64261">
        <ele>500</ele>
        <time>2022-04-28T09:05:45Z</time>
      </trkpt>
      <trkpt lat="44.66429" lon="2.64266">
        <ele>500.4</ele>
        <time>2022-04-28T09:05:57Z</time>
      </trkpt>
      <trkpt lat="44.66431" lon="2.6428">
        <ele>500.4</ele>
        <time>2022-04-28T09:06:09Z</time>
      </trkpt>
      <trkpt lat="44.66433" lon="2.64285">
        <ele>500.8</ele>
        <time>2022-04-28T09:06:17Z</time>
      </trkpt>
      <trkpt lat="44.66434" lon="2.64287">
        <ele>501.2</ele>
        <time>2022-04-28T09:06:20Z</time>
      </trkpt>
      <trkpt lat="44.66435" lon="2.64287">
        <ele>501.4</ele>
        <time>2022-04-28T09:06:21Z</time>
      </trkpt>
      <trkpt lat="44.66438" lon="2.6429">
        <ele>502</ele>
        <time>2022-04-28T09:06:25Z</time>
      </trkpt>
      <trkpt lat="44.6644" lon="2.64293">
        <ele>502.4</ele>
        <time>2022-04-28T09:06:28Z</time>
      </trkpt>
      <trkpt lat="44.66443" lon="2.64296">
        <ele>503</ele>
        <time>2022-04-28T09:06:32Z</time>
      </trkpt>
      <trkpt lat="44.66443" lon="2.64297">
        <ele>503.6</ele>
        <time>2022-04-28T09:06:35Z</time>
      </trkpt>
      <trkpt lat="44.66445" lon="2.64299">
        <ele>504.8</ele>
        <time>2022-04-28T09:06:40Z</time>
      </trkpt>
      <trkpt lat="44.66447" lon="2.64302">
        <ele>505.8</ele>
        <time>2022-04-28T09:06:44Z</time>
      </trkpt>
      <trkpt lat="44.66451" lon="2.64308">
        <ele>507.2</ele>
        <time>2022-04-28T09:06:53Z</time>
      </trkpt>
      <trkpt lat="44.66451" lon="2.64309">
        <ele>507.4</ele>
        <time>2022-04-28T09:06:54Z</time>
      </trkpt>
      <trkpt lat="44.66453" lon="2.64311">
        <ele>508.4</ele>
        <time>2022-04-28T09:06:58Z</time>
      </trkpt>
      <trkpt lat="44.66456" lon="2.64317">
        <ele>509.4</ele>
        <time>2022-04-28T09:07:05Z</time>
      </trkpt>
      <trkpt lat="44.66457" lon="2.64319">
        <ele>509.8</ele>
        <time>2022-04-28T09:07:07Z</time>
      </trkpt>
      <trkpt lat="44.66457" lon="2.64321">
        <ele>510.2</ele>
        <time>2022-04-28T09:07:09Z</time>
      </trkpt>
      <trkpt lat="44.66458" lon="2.64323">
        <ele>510.6</ele>
        <time>2022-04-28T09:07:11Z</time>
      </trkpt>
      <trkpt lat="44.66462" lon="2.64328">
        <ele>511.6</ele>
        <time>2022-04-28T09:07:19Z</time>
      </trkpt>
      <trkpt lat="44.66462" lon="2.64328">
        <ele>511.6</ele>
        <time>2022-04-28T09:07:20Z</time>
      </trkpt>
      <trkpt lat="44.66461" lon="2.64329">
        <ele>512.4</ele>
        <time>2022-04-28T09:07:28Z</time>
      </trkpt>
      <trkpt lat="44.66458" lon="2.6433">
        <ele>512.8</ele>
        <time>2022-04-28T09:07:33Z</time>
      </trkpt>
      <trkpt lat="44.66454" lon="2.64327">
        <ele>513.8</ele>
        <time>2022-04-28T09:07:38Z</time>
      </trkpt>
      <trkpt lat="44.66453" lon="2.64327">
        <ele>513.8</ele>
        <time>2022-04-28T09:07:39Z</time>
      </trkpt>
      <trkpt lat="44.66451" lon="2.64326">
        <ele>514</ele>
        <time>2022-04-28T09:07:40Z</time>
      </trkpt>
      <trkpt lat="44.66449" lon="2.64325">
        <ele>514.8</ele>
        <time>2022-04-28T09:07:45Z</time>
      </trkpt>
      <trkpt lat="44.66447" lon="2.64324">
        <ele>514.6</ele>
        <time>2022-04-28T09:07:49Z</time>
      </trkpt>
      <trkpt lat="44.66444" lon="2.64321">
        <ele>514.8</ele>
        <time>2022-04-28T09:07:53Z</time>
      </trkpt>
      <trkpt lat="44.66443" lon="2.6432">
        <ele>515</ele>
        <time>2022-04-28T09:07:55Z</time>
      </trkpt>
      <trkpt lat="44.66439" lon="2.64317">
        <ele>515.4</ele>
        <time>2022-04-28T09:08:00Z</time>
      </trkpt>
      <trkpt lat="44.66437" lon="2.64317">
        <ele>515.8</ele>
        <time>2022-04-28T09:08:02Z</time>
      </trkpt>
      <trkpt lat="44.66436" lon="2.64317">
        <ele>516</ele>
        <time>2022-04-28T09:08:03Z</time>
      </trkpt>
      <trkpt lat="44.66429" lon="2.6431">
        <ele>516.4</ele>
        <time>2022-04-28T09:08:13Z</time>
      </trkpt>
      <trkpt lat="44.66426" lon="2.64308">
        <ele>517</ele>
        <time>2022-04-28T09:08:18Z</time>
      </trkpt>
      <trkpt lat="44.66424" lon="2.64305">
        <ele>518.4</ele>
        <time>2022-04-28T09:08:24Z</time>
      </trkpt>
      <trkpt lat="44.66424" lon="2.64305">
        <ele>518.6</ele>
        <time>2022-04-28T09:08:25Z</time>
      </trkpt>
      <trkpt lat="44.66424" lon="2.64307">
        <ele>519.4</ele>
        <time>2022-04-28T09:08:31Z</time>
      </trkpt>
      <trkpt lat="44.66426" lon="2.64309">
        <ele>519.6</ele>
        <time>2022-04-28T09:08:34Z</time>
      </trkpt>
      <trkpt lat="44.6643" lon="2.64315">
        <ele>519.8</ele>
        <time>2022-04-28T09:08:44Z</time>
      </trkpt>
      <trkpt lat="44.66434" lon="2.64321">
        <ele>520</ele>
        <time>2022-04-28T09:08:51Z</time>
      </trkpt>
      <trkpt lat="44.66437" lon="2.64329">
        <ele>520.4</ele>
        <time>2022-04-28T09:09:00Z</time>
      </trkpt>
      <trkpt lat="44.66438" lon="2.6433">
        <ele>520.4</ele>
        <time>2022-04-28T09:09:02Z</time>
      </trkpt>
      <trkpt lat="44.66443" lon="2.64336">
        <ele>520.8</ele>
        <time>2022-04-28T09:09:12Z</time>
      </trkpt>
      <trkpt lat="44.66448" lon="2.64343">
        <ele>521.2</ele>
        <time>2022-04-28T09:09:23Z</time>
      </trkpt>
      <trkpt lat="44.6645" lon="2.64349">
        <ele>521</ele>
        <time>2022-04-28T09:09:30Z</time>
      </trkpt>
      <trkpt lat="44.6645" lon="2.64349">
        <ele>521</ele>
        <time>2022-04-28T09:09:32Z</time>
      </trkpt>
      <trkpt lat="44.66455" lon="2.64354">
        <ele>521.2</ele>
        <time>2022-04-28T09:09:40Z</time>
      </trkpt>
      <trkpt lat="44.66462" lon="2.64358">
        <ele>521.2</ele>
        <time>2022-04-28T09:09:50Z</time>
      </trkpt>
      <trkpt lat="44.66466" lon="2.64363">
        <ele>521.4</ele>
        <time>2022-04-28T09:09:56Z</time>
      </trkpt>
      <trkpt lat="44.66469" lon="2.64367">
        <ele>521.6</ele>
        <time>2022-04-28T09:10:01Z</time>
      </trkpt>
      <trkpt lat="44.66478" lon="2.6438">
        <ele>522.2</ele>
        <time>2022-04-28T09:10:14Z</time>
      </trkpt>
      <trkpt lat="44.66479" lon="2.64381">
        <ele>522.4</ele>
        <time>2022-04-28T09:10:17Z</time>
      </trkpt>
      <trkpt lat="44.6648" lon="2.64381">
        <ele>522.4</ele>
        <time>2022-04-28T09:10:18Z</time>
      </trkpt>
      <trkpt lat="44.66483" lon="2.64384">
        <ele>522.2</ele>
        <time>2022-04-28T09:10:26Z</time>
      </trkpt>
      <trkpt lat="44.66486" lon="2.6439">
        <ele>522.6</ele>
        <time>2022-04-28T09:10:32Z</time>
      </trkpt>
      <trkpt lat="44.6649" lon="2.64397">
        <ele>522.8</ele>
        <time>2022-04-28T09:10:40Z</time>
      </trkpt>
      <trkpt lat="44.66497" lon="2.64399">
        <ele>523</ele>
        <time>2022-04-28T09:10:50Z</time>
      </trkpt>
      <trkpt lat="44.66504" lon="2.64393">
        <ele>523.6</ele>
        <time>2022-04-28T09:11:07Z</time>
      </trkpt>
      <trkpt lat="44.66499" lon="2.64376">
        <ele>523.4</ele>
        <time>2022-04-28T09:11:27Z</time>
      </trkpt>
      <trkpt lat="44.66498" lon="2.64386">
        <ele>523.4</ele>
        <time>2022-04-28T09:11:28Z</time>
      </trkpt>
      <trkpt lat="44.66498" lon="2.64386">
        <ele>524.6</ele>
        <time>2022-04-28T09:11:44Z</time>
      </trkpt>
      <trkpt lat="44.66498" lon="2.64386">
        <ele>525</ele>
        <time>2022-04-28T09:12:50Z</time>
      </trkpt>
      <trkpt lat="44.66503" lon="2.64408">
        <ele>524.2</ele>
        <time>2022-04-28T09:13:23Z</time>
      </trkpt>
      <trkpt lat="44.66497" lon="2.644">
        <ele>523.2</ele>
        <time>2022-04-28T09:13:27Z</time>
      </trkpt>
      <trkpt lat="44.66493" lon="2.64398">
        <ele>523.2</ele>
        <time>2022-04-28T09:13:31Z</time>
      </trkpt>
      <trkpt lat="44.66492" lon="2.64402">
        <ele>523</ele>
        <time>2022-04-28T09:13:41Z</time>
      </trkpt>
      <trkpt lat="44.66495" lon="2.64411">
        <ele>522.6</ele>
        <time>2022-04-28T09:13:52Z</time>
      </trkpt>
      <trkpt lat="44.66503" lon="2.64419">
        <ele>522.8</ele>
        <time>2022-04-28T09:14:05Z</time>
      </trkpt>
      <trkpt lat="44.66507" lon="2.64434">
        <ele>523</ele>
        <time>2022-04-28T09:14:20Z</time>
      </trkpt>
      <trkpt lat="44.66514" lon="2.64449">
        <ele>523</ele>
        <time>2022-04-28T09:14:34Z</time>
      </trkpt>
      <trkpt lat="44.66513" lon="2.64449">
        <ele>523</ele>
        <time>2022-04-28T09:14:48Z</time>
      </trkpt>
      <trkpt lat="44.66516" lon="2.64448">
        <ele>523.4</ele>
        <time>2022-04-28T09:15:04Z</time>
      </trkpt>
      <trkpt lat="44.66518" lon="2.64447">
        <ele>522.4</ele>
        <time>2022-04-28T09:15:16Z</time>
      </trkpt>
      <trkpt lat="44.6652" lon="2.64449">
        <ele>523.6</ele>
        <time>2022-04-28T09:15:32Z</time>
      </trkpt>
      <trkpt lat="44.66525" lon="2.64454">
        <ele>523.8</ele>
        <time>2022-04-28T09:15:40Z</time>
      </trkpt>
      <trkpt lat="44.66528" lon="2.64458">
        <ele>523.6</ele>
        <time>2022-04-28T09:15:44Z</time>
      </trkpt>
      <trkpt lat="44.66532" lon="2.64469">
        <ele>523.6</ele>
        <time>2022-04-28T09:15:56Z</time>
      </trkpt>
      <trkpt lat="44.66533" lon="2.64471">
        <ele>523.4</ele>
        <time>2022-04-28T09:16:00Z</time>
      </trkpt>
      <trkpt lat="44.66532" lon="2.64478">
        <ele>523.6</ele>
        <time>2022-04-28T09:16:15Z</time>
      </trkpt>
      <trkpt lat="44.66528" lon="2.64475">
        <ele>522.8</ele>
        <time>2022-04-28T09:16:27Z</time>
      </trkpt>
      <trkpt lat="44.66528" lon="2.64478">
        <ele>522.8</ele>
        <time>2022-04-28T09:16:41Z</time>
      </trkpt>
      <trkpt lat="44.66528" lon="2.64479">
        <ele>522.8</ele>
        <time>2022-04-28T09:16:59Z</time>
      </trkpt>
      <trkpt lat="44.66529" lon="2.6448">
        <ele>522.6</ele>
        <time>2022-04-28T09:17:08Z</time>
      </trkpt>
      <trkpt lat="44.66529" lon="2.6448">
        <ele>522.6</ele>
        <time>2022-04-28T09:17:19Z</time>
      </trkpt>
      <trkpt lat="44.66531" lon="2.64476">
        <ele>522.4</ele>
        <time>2022-04-28T09:17:33Z</time>
      </trkpt>
      <trkpt lat="44.66536" lon="2.64474">
        <ele>522.6</ele>
        <time>2022-04-28T09:17:41Z</time>
      </trkpt>
      <trkpt lat="44.66544" lon="2.64477">
        <ele>523.4</ele>
        <time>2022-04-28T09:17:53Z</time>
      </trkpt>
      <trkpt lat="44.66548" lon="2.64479">
        <ele>524.2</ele>
        <time>2022-04-28T09:18:01Z</time>
      </trkpt>
      <trkpt lat="44.66548" lon="2.64477">
        <ele>524.4</ele>
        <time>2022-04-28T09:18:07Z</time>
      </trkpt>
      <trkpt lat="44.66543" lon="2.64471">
        <ele>523.8</ele>
        <time>2022-04-28T09:18:19Z</time>
      </trkpt>
      <trkpt lat="44.66543" lon="2.64471">
        <ele>523.6</ele>
        <time>2022-04-28T09:18:32Z</time>
      </trkpt>
      <trkpt lat="44.66545" lon="2.64466">
        <ele>523.2</ele>
        <time>2022-04-28T09:18:43Z</time>
      </trkpt>
      <trkpt lat="44.66546" lon="2.64464">
        <ele>522.8</ele>
        <time>2022-04-28T09:18:46Z</time>
      </trkpt>
      <trkpt lat="44.66549" lon="2.64464">
        <ele>522.4</ele>
        <time>2022-04-28T09:18:48Z</time>
      </trkpt>
      <trkpt lat="44.6655" lon="2.64464">
        <ele>522.2</ele>
        <time>2022-04-28T09:18:50Z</time>
      </trkpt>
      <trkpt lat="44.6655" lon="2.64464">
        <ele>522.2</ele>
        <time>2022-04-28T09:18:51Z</time>
      </trkpt>
      <trkpt lat="44.66553" lon="2.64465">
        <ele>521.6</ele>
        <time>2022-04-28T09:18:55Z</time>
      </trkpt>
      <trkpt lat="44.66554" lon="2.64467">
        <ele>521.6</ele>
        <time>2022-04-28T09:18:57Z</time>
      </trkpt>
      <trkpt lat="44.66557" lon="2.6447">
        <ele>521.4</ele>
        <time>2022-04-28T09:19:01Z</time>
      </trkpt>
      <trkpt lat="44.66558" lon="2.64471">
        <ele>521.4</ele>
        <time>2022-04-28T09:19:03Z</time>
      </trkpt>
      <trkpt lat="44.66558" lon="2.64472">
        <ele>521.2</ele>
        <time>2022-04-28T09:19:05Z</time>
      </trkpt>
      <trkpt lat="44.66558" lon="2.64473">
        <ele>521</ele>
        <time>2022-04-28T09:19:06Z</time>
      </trkpt>
      <trkpt lat="44.6656" lon="2.64472">
        <ele>520.8</ele>
        <time>2022-04-28T09:19:08Z</time>
      </trkpt>
      <trkpt lat="44.66563" lon="2.64475">
        <ele>520</ele>
        <time>2022-04-28T09:19:14Z</time>
      </trkpt>
      <trkpt lat="44.66566" lon="2.64481">
        <ele>519.4</ele>
        <time>2022-04-28T09:19:21Z</time>
      </trkpt>
      <trkpt lat="44.66567" lon="2.64483">
        <ele>519.2</ele>
        <time>2022-04-28T09:19:22Z</time>
      </trkpt>
      <trkpt lat="44.66568" lon="2.64487">
        <ele>518.8</ele>
        <time>2022-04-28T09:19:25Z</time>
      </trkpt>
      <trkpt lat="44.6657" lon="2.6449">
        <ele>517.8</ele>
        <time>2022-04-28T09:19:29Z</time>
      </trkpt>
      <trkpt lat="44.6657" lon="2.6449">
        <ele>517.6</ele>
        <time>2022-04-28T09:19:30Z</time>
      </trkpt>
      <trkpt lat="44.66574" lon="2.64493">
        <ele>516.8</ele>
        <time>2022-04-28T09:19:36Z</time>
      </trkpt>
      <trkpt lat="44.66575" lon="2.64493">
        <ele>516.8</ele>
        <time>2022-04-28T09:19:37Z</time>
      </trkpt>
      <trkpt lat="44.66576" lon="2.64494">
        <ele>516.6</ele>
        <time>2022-04-28T09:19:38Z</time>
      </trkpt>
      <trkpt lat="44.66583" lon="2.64501">
        <ele>515.8</ele>
        <time>2022-04-28T09:19:52Z</time>
      </trkpt>
      <trkpt lat="44.66584" lon="2.64502">
        <ele>515.6</ele>
        <time>2022-04-28T09:19:53Z</time>
      </trkpt>
      <trkpt lat="44.66589" lon="2.64506">
        <ele>514.6</ele>
        <time>2022-04-28T09:20:00Z</time>
      </trkpt>
      <trkpt lat="44.66592" lon="2.64508">
        <ele>513.8</ele>
        <time>2022-04-28T09:20:04Z</time>
      </trkpt>
      <trkpt lat="44.66592" lon="2.6451">
        <ele>513.4</ele>
        <time>2022-04-28T09:20:06Z</time>
      </trkpt>
      <trkpt lat="44.66592" lon="2.6451">
        <ele>513.2</ele>
        <time>2022-04-28T09:20:07Z</time>
      </trkpt>
      <trkpt lat="44.66597" lon="2.64512">
        <ele>512.8</ele>
        <time>2022-04-28T09:20:12Z</time>
      </trkpt>
      <trkpt lat="44.66599" lon="2.64513">
        <ele>512.6</ele>
        <time>2022-04-28T09:20:14Z</time>
      </trkpt>
      <trkpt lat="44.666" lon="2.64513">
        <ele>512.2</ele>
        <time>2022-04-28T09:20:15Z</time>
      </trkpt>
      <trkpt lat="44.66601" lon="2.64513">
        <ele>512.2</ele>
        <time>2022-04-28T09:20:16Z</time>
      </trkpt>
      <trkpt lat="44.66606" lon="2.6451">
        <ele>511.2</ele>
        <time>2022-04-28T09:20:22Z</time>
      </trkpt>
      <trkpt lat="44.66607" lon="2.64509">
        <ele>511.2</ele>
        <time>2022-04-28T09:20:24Z</time>
      </trkpt>
      <trkpt lat="44.66612" lon="2.64507">
        <ele>510.2</ele>
        <time>2022-04-28T09:20:30Z</time>
      </trkpt>
      <trkpt lat="44.66616" lon="2.6451">
        <ele>508.8</ele>
        <time>2022-04-28T09:20:37Z</time>
      </trkpt>
      <trkpt lat="44.66616" lon="2.6451">
        <ele>508.6</ele>
        <time>2022-04-28T09:20:38Z</time>
      </trkpt>
      <trkpt lat="44.66617" lon="2.6451">
        <ele>508.2</ele>
        <time>2022-04-28T09:20:39Z</time>
      </trkpt>
      <trkpt lat="44.66618" lon="2.64511">
        <ele>507.6</ele>
        <time>2022-04-28T09:20:41Z</time>
      </trkpt>
      <trkpt lat="44.66624" lon="2.64517">
        <ele>506.6</ele>
        <time>2022-04-28T09:20:48Z</time>
      </trkpt>
      <trkpt lat="44.6663" lon="2.64519">
        <ele>506</ele>
        <time>2022-04-28T09:20:53Z</time>
      </trkpt>
      <trkpt lat="44.66632" lon="2.64519">
        <ele>505.6</ele>
        <time>2022-04-28T09:20:56Z</time>
      </trkpt>
      <trkpt lat="44.66638" lon="2.6452">
        <ele>504.4</ele>
        <time>2022-04-28T09:21:01Z</time>
      </trkpt>
      <trkpt lat="44.66644" lon="2.64517">
        <ele>503.4</ele>
        <time>2022-04-28T09:21:08Z</time>
      </trkpt>
      <trkpt lat="44.66649" lon="2.64517">
        <ele>502.4</ele>
        <time>2022-04-28T09:21:14Z</time>
      </trkpt>
      <trkpt lat="44.66655" lon="2.64517">
        <ele>501.6</ele>
        <time>2022-04-28T09:21:21Z</time>
      </trkpt>
      <trkpt lat="44.66655" lon="2.64517">
        <ele>501.6</ele>
        <time>2022-04-28T09:21:23Z</time>
      </trkpt>
      <trkpt lat="44.66656" lon="2.64516">
        <ele>501.6</ele>
        <time>2022-04-28T09:21:25Z</time>
      </trkpt>
      <trkpt lat="44.66659" lon="2.64516">
        <ele>501.4</ele>
        <time>2022-04-28T09:21:32Z</time>
      </trkpt>
      <trkpt lat="44.66662" lon="2.64516">
        <ele>501.2</ele>
        <time>2022-04-28T09:21:36Z</time>
      </trkpt>
      <trkpt lat="44.66667" lon="2.64515">
        <ele>500.8</ele>
        <time>2022-04-28T09:21:41Z</time>
      </trkpt>
      <trkpt lat="44.6667" lon="2.64515">
        <ele>500.6</ele>
        <time>2022-04-28T09:21:44Z</time>
      </trkpt>
      <trkpt lat="44.66684" lon="2.64513">
        <ele>500.2</ele>
        <time>2022-04-28T09:21:58Z</time>
      </trkpt>
      <trkpt lat="44.66687" lon="2.64512">
        <ele>499.8</ele>
        <time>2022-04-28T09:22:01Z</time>
      </trkpt>
      <trkpt lat="44.66692" lon="2.6451">
        <ele>500</ele>
        <time>2022-04-28T09:22:06Z</time>
      </trkpt>
      <trkpt lat="44.66699" lon="2.64505">
        <ele>499.8</ele>
        <time>2022-04-28T09:22:14Z</time>
      </trkpt>
      <trkpt lat="44.66705" lon="2.64493">
        <ele>499</ele>
        <time>2022-04-28T09:22:25Z</time>
      </trkpt>
      <trkpt lat="44.66705" lon="2.64492">
        <ele>499</ele>
        <time>2022-04-28T09:22:26Z</time>
      </trkpt>
      <trkpt lat="44.66706" lon="2.64491">
        <ele>498.8</ele>
        <time>2022-04-28T09:22:27Z</time>
      </trkpt>
      <trkpt lat="44.66706" lon="2.6449">
        <ele>498.6</ele>
        <time>2022-04-28T09:22:29Z</time>
      </trkpt>
      <trkpt lat="44.66706" lon="2.64488">
        <ele>498.4</ele>
        <time>2022-04-28T09:22:31Z</time>
      </trkpt>
      <trkpt lat="44.66707" lon="2.64487">
        <ele>498</ele>
        <time>2022-04-28T09:22:33Z</time>
      </trkpt>
      <trkpt lat="44.66706" lon="2.64483">
        <ele>497.6</ele>
        <time>2022-04-28T09:22:39Z</time>
      </trkpt>
      <trkpt lat="44.66705" lon="2.6448">
        <ele>497.4</ele>
        <time>2022-04-28T09:22:55Z</time>
      </trkpt>
      <trkpt lat="44.66707" lon="2.64475">
        <ele>497</ele>
        <time>2022-04-28T09:23:01Z</time>
      </trkpt>
      <trkpt lat="44.66708" lon="2.64475">
        <ele>496.8</ele>
        <time>2022-04-28T09:23:08Z</time>
      </trkpt>
      <trkpt lat="44.66711" lon="2.64469">
        <ele>497</ele>
        <time>2022-04-28T09:23:20Z</time>
      </trkpt>
      <trkpt lat="44.6671" lon="2.64466">
        <ele>497.4</ele>
        <time>2022-04-28T09:23:33Z</time>
      </trkpt>
      <trkpt lat="44.66716" lon="2.64459">
        <ele>497</ele>
        <time>2022-04-28T09:23:44Z</time>
      </trkpt>
      <trkpt lat="44.66717" lon="2.64458">
        <ele>497</ele>
        <time>2022-04-28T09:23:45Z</time>
      </trkpt>
      <trkpt lat="44.6672" lon="2.64448">
        <ele>496.2</ele>
        <time>2022-04-28T09:23:56Z</time>
      </trkpt>
      <trkpt lat="44.6672" lon="2.64446">
        <ele>495.8</ele>
        <time>2022-04-28T09:23:57Z</time>
      </trkpt>
      <trkpt lat="44.66722" lon="2.64442">
        <ele>494.6</ele>
        <time>2022-04-28T09:24:01Z</time>
      </trkpt>
      <trkpt lat="44.66723" lon="2.6444">
        <ele>494.2</ele>
        <time>2022-04-28T09:24:04Z</time>
      </trkpt>
      <trkpt lat="44.66723" lon="2.64439">
        <ele>494</ele>
        <time>2022-04-28T09:24:06Z</time>
      </trkpt>
      <trkpt lat="44.66724" lon="2.64435">
        <ele>493.6</ele>
        <time>2022-04-28T09:24:12Z</time>
      </trkpt>
      <trkpt lat="44.66725" lon="2.64434">
        <ele>494.4</ele>
        <time>2022-04-28T09:24:17Z</time>
      </trkpt>
      <trkpt lat="44.66725" lon="2.64434">
        <ele>494.6</ele>
        <time>2022-04-28T09:24:19Z</time>
      </trkpt>
      <trkpt lat="44.66726" lon="2.64432">
        <ele>494.6</ele>
        <time>2022-04-28T09:24:34Z</time>
      </trkpt>
      <trkpt lat="44.66727" lon="2.64426">
        <ele>494.4</ele>
        <time>2022-04-28T09:24:51Z</time>
      </trkpt>
      <trkpt lat="44.66727" lon="2.64422">
        <ele>493.8</ele>
        <time>2022-04-28T09:25:01Z</time>
      </trkpt>
      <trkpt lat="44.66728" lon="2.6442">
        <ele>493.4</ele>
        <time>2022-04-28T09:25:04Z</time>
      </trkpt>
      <trkpt lat="44.6673" lon="2.64412">
        <ele>493</ele>
        <time>2022-04-28T09:25:13Z</time>
      </trkpt>
      <trkpt lat="44.66731" lon="2.6441">
        <ele>493</ele>
        <time>2022-04-28T09:25:14Z</time>
      </trkpt>
      <trkpt lat="44.66731" lon="2.64408">
        <ele>493</ele>
        <time>2022-04-28T09:25:17Z</time>
      </trkpt>
      <trkpt lat="44.6673" lon="2.64407">
        <ele>492.4</ele>
        <time>2022-04-28T09:25:20Z</time>
      </trkpt>
      <trkpt lat="44.6673" lon="2.64406">
        <ele>492</ele>
        <time>2022-04-28T09:25:22Z</time>
      </trkpt>
      <trkpt lat="44.6673" lon="2.64404">
        <ele>491.2</ele>
        <time>2022-04-28T09:25:25Z</time>
      </trkpt>
      <trkpt lat="44.66729" lon="2.64401">
        <ele>490</ele>
        <time>2022-04-28T09:25:30Z</time>
      </trkpt>
      <trkpt lat="44.66728" lon="2.64398">
        <ele>488.8</ele>
        <time>2022-04-28T09:25:34Z</time>
      </trkpt>
      <trkpt lat="44.66726" lon="2.64396">
        <ele>488</ele>
        <time>2022-04-28T09:25:38Z</time>
      </trkpt>
      <trkpt lat="44.66726" lon="2.64396">
        <ele>487.6</ele>
        <time>2022-04-28T09:25:39Z</time>
      </trkpt>
      <trkpt lat="44.66723" lon="2.64396">
        <ele>486.6</ele>
        <time>2022-04-28T09:25:44Z</time>
      </trkpt>
      <trkpt lat="44.66724" lon="2.64392">
        <ele>487</ele>
        <time>2022-04-28T09:25:53Z</time>
      </trkpt>
      <trkpt lat="44.66723" lon="2.64393">
        <ele>485.6</ele>
        <time>2022-04-28T09:26:02Z</time>
      </trkpt>
      <trkpt lat="44.66724" lon="2.64393">
        <ele>485</ele>
        <time>2022-04-28T09:26:08Z</time>
      </trkpt>
      <trkpt lat="44.66725" lon="2.64393">
        <ele>484.4</ele>
        <time>2022-04-28T09:26:12Z</time>
      </trkpt>
      <trkpt lat="44.66723" lon="2.64392">
        <ele>483</ele>
        <time>2022-04-28T09:26:21Z</time>
      </trkpt>
      <trkpt lat="44.66722" lon="2.64391">
        <ele>482</ele>
        <time>2022-04-28T09:26:25Z</time>
      </trkpt>
      <trkpt lat="44.66721" lon="2.6439">
        <ele>480.8</ele>
        <time>2022-04-28T09:26:30Z</time>
      </trkpt>
      <trkpt lat="44.66721" lon="2.6439">
        <ele>480.6</ele>
        <time>2022-04-28T09:26:31Z</time>
      </trkpt>
      <trkpt lat="44.66722" lon="2.64386">
        <ele>479.8</ele>
        <time>2022-04-28T09:26:37Z</time>
      </trkpt>
      <trkpt lat="44.66722" lon="2.64383">
        <ele>478.6</ele>
        <time>2022-04-28T09:26:42Z</time>
      </trkpt>
      <trkpt lat="44.66724" lon="2.64381">
        <ele>477.2</ele>
        <time>2022-04-28T09:26:46Z</time>
      </trkpt>
      <trkpt lat="44.66724" lon="2.64378">
        <ele>476.2</ele>
        <time>2022-04-28T09:26:49Z</time>
      </trkpt>
      <trkpt lat="44.66725" lon="2.64374">
        <ele>475</ele>
        <time>2022-04-28T09:26:54Z</time>
      </trkpt>
      <trkpt lat="44.66725" lon="2.64368">
        <ele>473.8</ele>
        <time>2022-04-28T09:27:02Z</time>
      </trkpt>
      <trkpt lat="44.66724" lon="2.64367">
        <ele>473.2</ele>
        <time>2022-04-28T09:27:09Z</time>
      </trkpt>
      <trkpt lat="44.66722" lon="2.64367">
        <ele>472.8</ele>
        <time>2022-04-28T09:27:14Z</time>
      </trkpt>
      <trkpt lat="44.66718" lon="2.64366">
        <ele>471.6</ele>
        <time>2022-04-28T09:27:21Z</time>
      </trkpt>
      <trkpt lat="44.66719" lon="2.64364">
        <ele>470.4</ele>
        <time>2022-04-28T09:27:29Z</time>
      </trkpt>
      <trkpt lat="44.6672" lon="2.64362">
        <ele>469.2</ele>
        <time>2022-04-28T09:27:32Z</time>
      </trkpt>
      <trkpt lat="44.66719" lon="2.6436">
        <ele>468</ele>
        <time>2022-04-28T09:27:36Z</time>
      </trkpt>
      <trkpt lat="44.66719" lon="2.6436">
        <ele>467.8</ele>
        <time>2022-04-28T09:27:37Z</time>
      </trkpt>
      <trkpt lat="44.66718" lon="2.6436">
        <ele>466.8</ele>
        <time>2022-04-28T09:27:41Z</time>
      </trkpt>
      <trkpt lat="44.66715" lon="2.64361">
        <ele>465.8</ele>
        <time>2022-04-28T09:27:49Z</time>
      </trkpt>
      <trkpt lat="44.66714" lon="2.6436">
        <ele>465.6</ele>
        <time>2022-04-28T09:27:51Z</time>
      </trkpt>
      <trkpt lat="44.66712" lon="2.64354">
        <ele>463.6</ele>
        <time>2022-04-28T09:28:00Z</time>
      </trkpt>
      <trkpt lat="44.66711" lon="2.64354">
        <ele>462</ele>
        <time>2022-04-28T09:28:01Z</time>
      </trkpt>
      <trkpt lat="44.66711" lon="2.64353">
        <ele>461.4</ele>
        <time>2022-04-28T09:28:03Z</time>
      </trkpt>
      <trkpt lat="44.66709" lon="2.64351">
        <ele>460.8</ele>
        <time>2022-04-28T09:28:07Z</time>
      </trkpt>
      <trkpt lat="44.66708" lon="2.64346">
        <ele>459.8</ele>
        <time>2022-04-28T09:28:15Z</time>
      </trkpt>
      <trkpt lat="44.66708" lon="2.64346">
        <ele>459.6</ele>
        <time>2022-04-28T09:28:16Z</time>
      </trkpt>
      <trkpt lat="44.6671" lon="2.64337">
        <ele>459</ele>
        <time>2022-04-28T09:28:28Z</time>
      </trkpt>
      <trkpt lat="44.66709" lon="2.64333">
        <ele>458.4</ele>
        <time>2022-04-28T09:28:34Z</time>
      </trkpt>
      <trkpt lat="44.66709" lon="2.6433">
        <ele>457</ele>
        <time>2022-04-28T09:28:39Z</time>
      </trkpt>
      <trkpt lat="44.66709" lon="2.64325">
        <ele>455.4</ele>
        <time>2022-04-28T09:28:46Z</time>
      </trkpt>
      <trkpt lat="44.66709" lon="2.64324">
        <ele>455</ele>
        <time>2022-04-28T09:28:47Z</time>
      </trkpt>
      <trkpt lat="44.66709" lon="2.64321">
        <ele>454.2</ele>
        <time>2022-04-28T09:28:51Z</time>
      </trkpt>
      <trkpt lat="44.66715" lon="2.64311">
        <ele>453.6</ele>
        <time>2022-04-28T09:29:01Z</time>
      </trkpt>
      <trkpt lat="44.66716" lon="2.6431">
        <ele>453.2</ele>
        <time>2022-04-28T09:29:03Z</time>
      </trkpt>
      <trkpt lat="44.66717" lon="2.64307">
        <ele>452.6</ele>
        <time>2022-04-28T09:29:06Z</time>
      </trkpt>
      <trkpt lat="44.6672" lon="2.64302">
        <ele>452.4</ele>
        <time>2022-04-28T09:29:13Z</time>
      </trkpt>
      <trkpt lat="44.6672" lon="2.64301">
        <ele>452.6</ele>
        <time>2022-04-28T09:29:15Z</time>
      </trkpt>
      <trkpt lat="44.6672" lon="2.64301">
        <ele>452.6</ele>
        <time>2022-04-28T09:29:17Z</time>
      </trkpt>
      <trkpt lat="44.6672" lon="2.64299">
        <ele>453</ele>
        <time>2022-04-28T09:29:19Z</time>
      </trkpt>
      <trkpt lat="44.66713" lon="2.64294">
        <ele>454.2</ele>
        <time>2022-04-28T09:29:29Z</time>
      </trkpt>
      <trkpt lat="44.66708" lon="2.64292">
        <ele>454</ele>
        <time>2022-04-28T09:29:35Z</time>
      </trkpt>
      <trkpt lat="44.66708" lon="2.6429">
        <ele>453.6</ele>
        <time>2022-04-28T09:29:44Z</time>
      </trkpt>
      <trkpt lat="44.66709" lon="2.64288">
        <ele>453.2</ele>
        <time>2022-04-28T09:30:02Z</time>
      </trkpt>
      <trkpt lat="44.66705" lon="2.64284">
        <ele>452.6</ele>
        <time>2022-04-28T09:30:15Z</time>
      </trkpt>
      <trkpt lat="44.66709" lon="2.64287">
        <ele>452</ele>
        <time>2022-04-28T09:30:28Z</time>
      </trkpt>
      <trkpt lat="44.6671" lon="2.64288">
        <ele>451.8</ele>
        <time>2022-04-28T09:30:29Z</time>
      </trkpt>
      <trkpt lat="44.66709" lon="2.64287">
        <ele>450.8</ele>
        <time>2022-04-28T09:30:34Z</time>
      </trkpt>
      <trkpt lat="44.66708" lon="2.64286">
        <ele>450</ele>
        <time>2022-04-28T09:30:44Z</time>
      </trkpt>
      <trkpt lat="44.66708" lon="2.64286">
        <ele>449.6</ele>
        <time>2022-04-28T09:30:47Z</time>
      </trkpt>
      <trkpt lat="44.6671" lon="2.64286">
        <ele>448.6</ele>
        <time>2022-04-28T09:30:54Z</time>
      </trkpt>
      <trkpt lat="44.66712" lon="2.64286">
        <ele>447.6</ele>
        <time>2022-04-28T09:30:59Z</time>
      </trkpt>
      <trkpt lat="44.66712" lon="2.64286">
        <ele>447.4</ele>
        <time>2022-04-28T09:31:00Z</time>
      </trkpt>
      <trkpt lat="44.66712" lon="2.64286">
        <ele>446.6</ele>
        <time>2022-04-28T09:31:05Z</time>
      </trkpt>
      <trkpt lat="44.66712" lon="2.64285">
        <ele>446.8</ele>
        <time>2022-04-28T09:31:16Z</time>
      </trkpt>
      <trkpt lat="44.66712" lon="2.64285">
        <ele>447.6</ele>
        <time>2022-04-28T09:31:18Z</time>
      </trkpt>
      <trkpt lat="44.66716" lon="2.64286">
        <ele>448.4</ele>
        <time>2022-04-28T09:31:30Z</time>
      </trkpt>
      <trkpt lat="44.66717" lon="2.64285">
        <ele>448.6</ele>
        <time>2022-04-28T09:31:35Z</time>
      </trkpt>
      <trkpt lat="44.6672" lon="2.64278">
        <ele>448.6</ele>
        <time>2022-04-28T09:31:43Z</time>
      </trkpt>
      <trkpt lat="44.66719" lon="2.64266">
        <ele>448.6</ele>
        <time>2022-04-28T09:31:57Z</time>
      </trkpt>
      <trkpt lat="44.66715" lon="2.64264">
        <ele>449.4</ele>
        <time>2022-04-28T09:32:10Z</time>
      </trkpt>
      <trkpt lat="44.66713" lon="2.64259">
        <ele>449.2</ele>
        <time>2022-04-28T09:32:27Z</time>
      </trkpt>
      <trkpt lat="44.66713" lon="2.64259">
        <ele>449.6</ele>
        <time>2022-04-28T09:32:29Z</time>
      </trkpt>
      <trkpt lat="44.66712" lon="2.64258">
        <ele>450.2</ele>
        <time>2022-04-28T09:32:40Z</time>
      </trkpt>
      <trkpt lat="44.66709" lon="2.6426">
        <ele>451</ele>
        <time>2022-04-28T09:32:47Z</time>
      </trkpt>
      <trkpt lat="44.66709" lon="2.64261">
        <ele>452</ele>
        <time>2022-04-28T09:32:52Z</time>
      </trkpt>
      <trkpt lat="44.66708" lon="2.64261">
        <ele>452</ele>
        <time>2022-04-28T09:32:53Z</time>
      </trkpt>
      <trkpt lat="44.66708" lon="2.64268">
        <ele>453.4</ele>
        <time>2022-04-28T09:33:00Z</time>
      </trkpt>
      <trkpt lat="44.66707" lon="2.6427">
        <ele>454</ele>
        <time>2022-04-28T09:33:02Z</time>
      </trkpt>
      <trkpt lat="44.66706" lon="2.64273">
        <ele>454.4</ele>
        <time>2022-04-28T09:33:04Z</time>
      </trkpt>
      <trkpt lat="44.66705" lon="2.64274">
        <ele>454.8</ele>
        <time>2022-04-28T09:33:06Z</time>
      </trkpt>
      <trkpt lat="44.66703" lon="2.64278">
        <ele>455.4</ele>
        <time>2022-04-28T09:33:12Z</time>
      </trkpt>
      <trkpt lat="44.66703" lon="2.64279">
        <ele>455.4</ele>
        <time>2022-04-28T09:33:13Z</time>
      </trkpt>
      <trkpt lat="44.66703" lon="2.6428">
        <ele>455.4</ele>
        <time>2022-04-28T09:33:14Z</time>
      </trkpt>
      <trkpt lat="44.66703" lon="2.64281">
        <ele>455.4</ele>
        <time>2022-04-28T09:33:20Z</time>
      </trkpt>
      <trkpt lat="44.66697" lon="2.64282">
        <ele>456.2</ele>
        <time>2022-04-28T09:33:27Z</time>
      </trkpt>
      <trkpt lat="44.66695" lon="2.64283">
        <ele>456.8</ele>
        <time>2022-04-28T09:33:29Z</time>
      </trkpt>
      <trkpt lat="44.66694" lon="2.64283">
        <ele>457.2</ele>
        <time>2022-04-28T09:33:31Z</time>
      </trkpt>
      <trkpt lat="44.66692" lon="2.64284">
        <ele>457.6</ele>
        <time>2022-04-28T09:33:33Z</time>
      </trkpt>
      <trkpt lat="44.66691" lon="2.64284">
        <ele>458</ele>
        <time>2022-04-28T09:33:34Z</time>
      </trkpt>
      <trkpt lat="44.66689" lon="2.64286">
        <ele>459</ele>
        <time>2022-04-28T09:33:37Z</time>
      </trkpt>
      <trkpt lat="44.66688" lon="2.64286">
        <ele>459.2</ele>
        <time>2022-04-28T09:33:38Z</time>
      </trkpt>
      <trkpt lat="44.66687" lon="2.64287">
        <ele>459.6</ele>
        <time>2022-04-28T09:33:40Z</time>
      </trkpt>
      <trkpt lat="44.66687" lon="2.64288">
        <ele>460</ele>
        <time>2022-04-28T09:33:41Z</time>
      </trkpt>
      <trkpt lat="44.66685" lon="2.64289">
        <ele>460.2</ele>
        <time>2022-04-28T09:33:42Z</time>
      </trkpt>
      <trkpt lat="44.66685" lon="2.64289">
        <ele>460.4</ele>
        <time>2022-04-28T09:33:43Z</time>
      </trkpt>
      <trkpt lat="44.66683" lon="2.64292">
        <ele>460.8</ele>
        <time>2022-04-28T09:33:45Z</time>
      </trkpt>
      <trkpt lat="44.66682" lon="2.64296">
        <ele>461.4</ele>
        <time>2022-04-28T09:33:50Z</time>
      </trkpt>
      <trkpt lat="44.66681" lon="2.64296">
        <ele>462</ele>
        <time>2022-04-28T09:33:52Z</time>
      </trkpt>
      <trkpt lat="44.66678" lon="2.64297">
        <ele>462.8</ele>
        <time>2022-04-28T09:33:56Z</time>
      </trkpt>
      <trkpt lat="44.66677" lon="2.64297">
        <ele>463.2</ele>
        <time>2022-04-28T09:33:59Z</time>
      </trkpt>
      <trkpt lat="44.66677" lon="2.64295">
        <ele>463.8</ele>
        <time>2022-04-28T09:34:01Z</time>
      </trkpt>
      <trkpt lat="44.66677" lon="2.64295">
        <ele>464.4</ele>
        <time>2022-04-28T09:34:03Z</time>
      </trkpt>
      <trkpt lat="44.66676" lon="2.64295">
        <ele>464.8</ele>
        <time>2022-04-28T09:34:04Z</time>
      </trkpt>
      <trkpt lat="44.66676" lon="2.64295">
        <ele>464.8</ele>
        <time>2022-04-28T09:34:05Z</time>
      </trkpt>
      <trkpt lat="44.66675" lon="2.64291">
        <ele>466.2</ele>
        <time>2022-04-28T09:34:10Z</time>
      </trkpt>
      <trkpt lat="44.66673" lon="2.64287">
        <ele>467.2</ele>
        <time>2022-04-28T09:34:15Z</time>
      </trkpt>
      <trkpt lat="44.66673" lon="2.64286">
        <ele>467.4</ele>
        <time>2022-04-28T09:34:16Z</time>
      </trkpt>
      <trkpt lat="44.66673" lon="2.64286">
        <ele>468.4</ele>
        <time>2022-04-28T09:34:19Z</time>
      </trkpt>
      <trkpt lat="44.66671" lon="2.64284">
        <ele>468.6</ele>
        <time>2022-04-28T09:34:29Z</time>
      </trkpt>
      <trkpt lat="44.6667" lon="2.64285">
        <ele>468.4</ele>
        <time>2022-04-28T09:34:48Z</time>
      </trkpt>
      <trkpt lat="44.66676" lon="2.64285">
        <ele>468.8</ele>
        <time>2022-04-28T09:35:02Z</time>
      </trkpt>
      <trkpt lat="44.66681" lon="2.6429">
        <ele>467.2</ele>
        <time>2022-04-28T09:35:12Z</time>
      </trkpt>
      <trkpt lat="44.66681" lon="2.64293">
        <ele>466</ele>
        <time>2022-04-28T09:35:17Z</time>
      </trkpt>
      <trkpt lat="44.66686" lon="2.64292">
        <ele>464.8</ele>
        <time>2022-04-28T09:35:24Z</time>
      </trkpt>
      <trkpt lat="44.6669" lon="2.6429">
        <ele>463.6</ele>
        <time>2022-04-28T09:35:30Z</time>
      </trkpt>
      <trkpt lat="44.66693" lon="2.64288">
        <ele>462.4</ele>
        <time>2022-04-28T09:35:35Z</time>
      </trkpt>
      <trkpt lat="44.66697" lon="2.64286">
        <ele>461.4</ele>
        <time>2022-04-28T09:35:41Z</time>
      </trkpt>
      <trkpt lat="44.66698" lon="2.64285">
        <ele>461.2</ele>
        <time>2022-04-28T09:35:42Z</time>
      </trkpt>
      <trkpt lat="44.66699" lon="2.64284">
        <ele>461.2</ele>
        <time>2022-04-28T09:35:43Z</time>
      </trkpt>
      <trkpt lat="44.66702" lon="2.64283">
        <ele>460.2</ele>
        <time>2022-04-28T09:35:46Z</time>
      </trkpt>
      <trkpt lat="44.66702" lon="2.64283">
        <ele>459.8</ele>
        <time>2022-04-28T09:35:47Z</time>
      </trkpt>
      <trkpt lat="44.66703" lon="2.64282">
        <ele>459</ele>
        <time>2022-04-28T09:35:49Z</time>
      </trkpt>
      <trkpt lat="44.66703" lon="2.64281">
        <ele>458.4</ele>
        <time>2022-04-28T09:35:51Z</time>
      </trkpt>
      <trkpt lat="44.66704" lon="2.6428">
        <ele>458</ele>
        <time>2022-04-28T09:35:53Z</time>
      </trkpt>
      <trkpt lat="44.66706" lon="2.64279">
        <ele>457.6</ele>
        <time>2022-04-28T09:35:56Z</time>
      </trkpt>
      <trkpt lat="44.66706" lon="2.64279">
        <ele>457.6</ele>
        <time>2022-04-28T09:35:57Z</time>
      </trkpt>
      <trkpt lat="44.66706" lon="2.64278">
        <ele>457</ele>
        <time>2022-04-28T09:35:59Z</time>
      </trkpt>
      <trkpt lat="44.66707" lon="2.64278">
        <ele>456.6</ele>
        <time>2022-04-28T09:36:00Z</time>
      </trkpt>
      <trkpt lat="44.66708" lon="2.64275">
        <ele>455.8</ele>
        <time>2022-04-28T09:36:03Z</time>
      </trkpt>
      <trkpt lat="44.66709" lon="2.64272">
        <ele>454.8</ele>
        <time>2022-04-28T09:36:07Z</time>
      </trkpt>
      <trkpt lat="44.66709" lon="2.64271">
        <ele>454.8</ele>
        <time>2022-04-28T09:36:08Z</time>
      </trkpt>
      <trkpt lat="44.6671" lon="2.64267">
        <ele>453.6</ele>
        <time>2022-04-28T09:36:15Z</time>
      </trkpt>
      <trkpt lat="44.66711" lon="2.64264">
        <ele>452.6</ele>
        <time>2022-04-28T09:36:20Z</time>
      </trkpt>
      <trkpt lat="44.66708" lon="2.6426">
        <ele>451.8</ele>
        <time>2022-04-28T09:36:32Z</time>
      </trkpt>
      <trkpt lat="44.66706" lon="2.64258">
        <ele>451.6</ele>
        <time>2022-04-28T09:36:41Z</time>
      </trkpt>
      <trkpt lat="44.66707" lon="2.64255">
        <ele>451.2</ele>
        <time>2022-04-28T09:36:47Z</time>
      </trkpt>
      <trkpt lat="44.66709" lon="2.64258">
        <ele>450</ele>
        <time>2022-04-28T09:36:55Z</time>
      </trkpt>
      <trkpt lat="44.66708" lon="2.64259">
        <ele>449.4</ele>
        <time>2022-04-28T09:36:57Z</time>
      </trkpt>
      <trkpt lat="44.66709" lon="2.6426">
        <ele>449</ele>
        <time>2022-04-28T09:37:00Z</time>
      </trkpt>
      <trkpt lat="44.66713" lon="2.64265">
        <ele>448.8</ele>
        <time>2022-04-28T09:37:09Z</time>
      </trkpt>
      <trkpt lat="44.66714" lon="2.64267">
        <ele>448</ele>
        <time>2022-04-28T09:37:13Z</time>
      </trkpt>
      <trkpt lat="44.66715" lon="2.64268">
        <ele>447.8</ele>
        <time>2022-04-28T09:37:25Z</time>
      </trkpt>
      <trkpt lat="44.66712" lon="2.64277">
        <ele>448.8</ele>
        <time>2022-04-28T09:37:38Z</time>
      </trkpt>
      <trkpt lat="44.66711" lon="2.6428">
        <ele>448.8</ele>
        <time>2022-04-28T09:37:40Z</time>
      </trkpt>
      <trkpt lat="44.66709" lon="2.64283">
        <ele>449</ele>
        <time>2022-04-28T09:37:43Z</time>
      </trkpt>
      <trkpt lat="44.66709" lon="2.64285">
        <ele>449.2</ele>
        <time>2022-04-28T09:37:45Z</time>
      </trkpt>
      <trkpt lat="44.66709" lon="2.64285">
        <ele>449.4</ele>
        <time>2022-04-28T09:37:47Z</time>
      </trkpt>
      <trkpt lat="44.66709" lon="2.64285">
        <ele>449.2</ele>
        <time>2022-04-28T09:37:49Z</time>
      </trkpt>
      <trkpt lat="44.66718" lon="2.64293">
        <ele>449.4</ele>
        <time>2022-04-28T09:38:00Z</time>
      </trkpt>
      <trkpt lat="44.66719" lon="2.64293">
        <ele>449.4</ele>
        <time>2022-04-28T09:38:01Z</time>
      </trkpt>
      <trkpt lat="44.66721" lon="2.64294">
        <ele>449.4</ele>
        <time>2022-04-28T09:38:05Z</time>
      </trkpt>
      <trkpt lat="44.66722" lon="2.64295">
        <ele>449.4</ele>
        <time>2022-04-28T09:38:06Z</time>
      </trkpt>
      <trkpt lat="44.66724" lon="2.64295">
        <ele>449</ele>
        <time>2022-04-28T09:38:09Z</time>
      </trkpt>
      <trkpt lat="44.66725" lon="2.64296">
        <ele>448.8</ele>
        <time>2022-04-28T09:38:11Z</time>
      </trkpt>
      <trkpt lat="44.66725" lon="2.64297">
        <ele>448.2</ele>
        <time>2022-04-28T09:38:18Z</time>
      </trkpt>
      <trkpt lat="44.66725" lon="2.64297">
        <ele>448</ele>
        <time>2022-04-28T09:38:21Z</time>
      </trkpt>
      <trkpt lat="44.66718" lon="2.64297">
        <ele>447.6</ele>
        <time>2022-04-28T09:38:33Z</time>
      </trkpt>
      <trkpt lat="44.66709" lon="2.64305">
        <ele>448.6</ele>
        <time>2022-04-28T09:38:52Z</time>
      </trkpt>
      <trkpt lat="44.66708" lon="2.64314">
        <ele>448.6</ele>
        <time>2022-04-28T09:39:07Z</time>
      </trkpt>
      <trkpt lat="44.66708" lon="2.64326">
        <ele>448.6</ele>
        <time>2022-04-28T09:39:25Z</time>
      </trkpt>
      <trkpt lat="44.66708" lon="2.64332">
        <ele>453.2</ele>
        <time>2022-04-28T09:39:31Z</time>
      </trkpt>
      <trkpt lat="44.6671" lon="2.64334">
        <ele>454.4</ele>
        <time>2022-04-28T09:39:39Z</time>
      </trkpt>
      <trkpt lat="44.66712" lon="2.64335">
        <ele>455.2</ele>
        <time>2022-04-28T09:39:43Z</time>
      </trkpt>
      <trkpt lat="44.66713" lon="2.64336">
        <ele>455.6</ele>
        <time>2022-04-28T09:39:45Z</time>
      </trkpt>
      <trkpt lat="44.66717" lon="2.64343">
        <ele>456.6</ele>
        <time>2022-04-28T09:39:53Z</time>
      </trkpt>
      <trkpt lat="44.66718" lon="2.64344">
        <ele>457.6</ele>
        <time>2022-04-28T09:39:56Z</time>
      </trkpt>
      <trkpt lat="44.66718" lon="2.64344">
        <ele>457.8</ele>
        <time>2022-04-28T09:39:57Z</time>
      </trkpt>
      <trkpt lat="44.66719" lon="2.64345">
        <ele>458.4</ele>
        <time>2022-04-28T09:39:59Z</time>
      </trkpt>
      <trkpt lat="44.66719" lon="2.64345">
        <ele>458.8</ele>
        <time>2022-04-28T09:40:00Z</time>
      </trkpt>
      <trkpt lat="44.66719" lon="2.64348">
        <ele>459.8</ele>
        <time>2022-04-28T09:40:04Z</time>
      </trkpt>
      <trkpt lat="44.66718" lon="2.64348">
        <ele>460.2</ele>
        <time>2022-04-28T09:40:05Z</time>
      </trkpt>
      <trkpt lat="44.6672" lon="2.6435">
        <ele>461</ele>
        <time>2022-04-28T09:40:09Z</time>
      </trkpt>
      <trkpt lat="44.6672" lon="2.6435">
        <ele>461.6</ele>
        <time>2022-04-28T09:40:13Z</time>
      </trkpt>
      <trkpt lat="44.6672" lon="2.6435">
        <ele>462.2</ele>
        <time>2022-04-28T09:40:15Z</time>
      </trkpt>
      <trkpt lat="44.66722" lon="2.6435">
        <ele>463.2</ele>
        <time>2022-04-28T09:40:20Z</time>
      </trkpt>
      <trkpt lat="44.66723" lon="2.6435">
        <ele>464.2</ele>
        <time>2022-04-28T09:40:27Z</time>
      </trkpt>
      <trkpt lat="44.66724" lon="2.64351">
        <ele>464.2</ele>
        <time>2022-04-28T09:40:28Z</time>
      </trkpt>
      <trkpt lat="44.66724" lon="2.64353">
        <ele>465.8</ele>
        <time>2022-04-28T09:40:33Z</time>
      </trkpt>
      <trkpt lat="44.66724" lon="2.64352">
        <ele>466.8</ele>
        <time>2022-04-28T09:40:35Z</time>
      </trkpt>
      <trkpt lat="44.66725" lon="2.64351">
        <ele>467.8</ele>
        <time>2022-04-28T09:40:39Z</time>
      </trkpt>
      <trkpt lat="44.66726" lon="2.6435">
        <ele>468.4</ele>
        <time>2022-04-28T09:40:42Z</time>
      </trkpt>
      <trkpt lat="44.66726" lon="2.64349">
        <ele>468.8</ele>
        <time>2022-04-28T09:40:46Z</time>
      </trkpt>
      <trkpt lat="44.66726" lon="2.64354">
        <ele>469.6</ele>
        <time>2022-04-28T09:40:57Z</time>
      </trkpt>
      <trkpt lat="44.66727" lon="2.64353">
        <ele>470.2</ele>
        <time>2022-04-28T09:40:58Z</time>
      </trkpt>
      <trkpt lat="44.6673" lon="2.64359">
        <ele>471.2</ele>
        <time>2022-04-28T09:41:06Z</time>
      </trkpt>
      <trkpt lat="44.6673" lon="2.64364">
        <ele>472</ele>
        <time>2022-04-28T09:41:11Z</time>
      </trkpt>
      <trkpt lat="44.6673" lon="2.64367">
        <ele>472.4</ele>
        <time>2022-04-28T09:41:14Z</time>
      </trkpt>
      <trkpt lat="44.66727" lon="2.64366">
        <ele>473.4</ele>
        <time>2022-04-28T09:41:18Z</time>
      </trkpt>
      <trkpt lat="44.66725" lon="2.64368">
        <ele>474</ele>
        <time>2022-04-28T09:41:24Z</time>
      </trkpt>
      <trkpt lat="44.66725" lon="2.64371">
        <ele>474.6</ele>
        <time>2022-04-28T09:41:30Z</time>
      </trkpt>
      <trkpt lat="44.66724" lon="2.64371">
        <ele>475.2</ele>
        <time>2022-04-28T09:41:33Z</time>
      </trkpt>
      <trkpt lat="44.66724" lon="2.64372">
        <ele>475.8</ele>
        <time>2022-04-28T09:41:35Z</time>
      </trkpt>
      <trkpt lat="44.66721" lon="2.64377">
        <ele>477</ele>
        <time>2022-04-28T09:41:40Z</time>
      </trkpt>
      <trkpt lat="44.66722" lon="2.64377">
        <ele>477.4</ele>
        <time>2022-04-28T09:41:42Z</time>
      </trkpt>
      <trkpt lat="44.66723" lon="2.6438">
        <ele>478</ele>
        <time>2022-04-28T09:41:48Z</time>
      </trkpt>
      <trkpt lat="44.66725" lon="2.64382">
        <ele>479</ele>
        <time>2022-04-28T09:41:55Z</time>
      </trkpt>
      <trkpt lat="44.66726" lon="2.64381">
        <ele>480</ele>
        <time>2022-04-28T09:41:57Z</time>
      </trkpt>
      <trkpt lat="44.66726" lon="2.64381">
        <ele>480.4</ele>
        <time>2022-04-28T09:41:58Z</time>
      </trkpt>
      <trkpt lat="44.66726" lon="2.64381">
        <ele>480.6</ele>
        <time>2022-04-28T09:41:59Z</time>
      </trkpt>
      <trkpt lat="44.66726" lon="2.64383">
        <ele>481.4</ele>
        <time>2022-04-28T09:42:04Z</time>
      </trkpt>
      <trkpt lat="44.66726" lon="2.64391">
        <ele>481.8</ele>
        <time>2022-04-28T09:42:12Z</time>
      </trkpt>
      <trkpt lat="44.66726" lon="2.64391">
        <ele>482.6</ele>
        <time>2022-04-28T09:42:17Z</time>
      </trkpt>
      <trkpt lat="44.6673" lon="2.64392">
        <ele>483.2</ele>
        <time>2022-04-28T09:42:26Z</time>
      </trkpt>
      <trkpt lat="44.66732" lon="2.64394">
        <ele>483.8</ele>
        <time>2022-04-28T09:42:36Z</time>
      </trkpt>
      <trkpt lat="44.66732" lon="2.64397">
        <ele>484.8</ele>
        <time>2022-04-28T09:42:40Z</time>
      </trkpt>
      <trkpt lat="44.66732" lon="2.64398">
        <ele>485</ele>
        <time>2022-04-28T09:42:41Z</time>
      </trkpt>
      <trkpt lat="44.66733" lon="2.64401">
        <ele>486.4</ele>
        <time>2022-04-28T09:42:45Z</time>
      </trkpt>
      <trkpt lat="44.66734" lon="2.64402">
        <ele>487.8</ele>
        <time>2022-04-28T09:42:49Z</time>
      </trkpt>
      <trkpt lat="44.66734" lon="2.64403">
        <ele>489.2</ele>
        <time>2022-04-28T09:42:51Z</time>
      </trkpt>
      <trkpt lat="44.66734" lon="2.64403">
        <ele>490.2</ele>
        <time>2022-04-28T09:42:53Z</time>
      </trkpt>
      <trkpt lat="44.66734" lon="2.64405">
        <ele>490.8</ele>
        <time>2022-04-28T09:42:55Z</time>
      </trkpt>
      <trkpt lat="44.66733" lon="2.64406">
        <ele>491.2</ele>
        <time>2022-04-28T09:42:56Z</time>
      </trkpt>
      <trkpt lat="44.66732" lon="2.64408">
        <ele>492.4</ele>
        <time>2022-04-28T09:42:59Z</time>
      </trkpt>
      <trkpt lat="44.6673" lon="2.64411">
        <ele>493.6</ele>
        <time>2022-04-28T09:43:01Z</time>
      </trkpt>
      <trkpt lat="44.66729" lon="2.64412">
        <ele>494</ele>
        <time>2022-04-28T09:43:02Z</time>
      </trkpt>
      <trkpt lat="44.66726" lon="2.64416">
        <ele>494</ele>
        <time>2022-04-28T09:43:05Z</time>
      </trkpt>
      <trkpt lat="44.66725" lon="2.64419">
        <ele>494</ele>
        <time>2022-04-28T09:43:08Z</time>
      </trkpt>
      <trkpt lat="44.66722" lon="2.6443">
        <ele>494.8</ele>
        <time>2022-04-28T09:43:15Z</time>
      </trkpt>
      <trkpt lat="44.66722" lon="2.64435">
        <ele>496</ele>
        <time>2022-04-28T09:43:22Z</time>
      </trkpt>
      <trkpt lat="44.66721" lon="2.64435">
        <ele>496.2</ele>
        <time>2022-04-28T09:43:23Z</time>
      </trkpt>
      <trkpt lat="44.66716" lon="2.64435">
        <ele>497</ele>
        <time>2022-04-28T09:43:29Z</time>
      </trkpt>
      <trkpt lat="44.66713" lon="2.6444">
        <ele>497.2</ele>
        <time>2022-04-28T09:43:34Z</time>
      </trkpt>
      <trkpt lat="44.66709" lon="2.64462">
        <ele>497</ele>
        <time>2022-04-28T09:43:49Z</time>
      </trkpt>
      <trkpt lat="44.66708" lon="2.64465">
        <ele>497.2</ele>
        <time>2022-04-28T09:43:51Z</time>
      </trkpt>
      <trkpt lat="44.66705" lon="2.64477">
        <ele>498.2</ele>
        <time>2022-04-28T09:44:02Z</time>
      </trkpt>
      <trkpt lat="44.66704" lon="2.64479">
        <ele>497.8</ele>
        <time>2022-04-28T09:44:04Z</time>
      </trkpt>
      <trkpt lat="44.66701" lon="2.64481">
        <ele>497.8</ele>
        <time>2022-04-28T09:44:06Z</time>
      </trkpt>
      <trkpt lat="44.66693" lon="2.64489">
        <ele>498.4</ele>
        <time>2022-04-28T09:44:17Z</time>
      </trkpt>
      <trkpt lat="44.66685" lon="2.64497">
        <ele>499</ele>
        <time>2022-04-28T09:44:31Z</time>
      </trkpt>
      <trkpt lat="44.66685" lon="2.64496">
        <ele>499</ele>
        <time>2022-04-28T09:44:33Z</time>
      </trkpt>
      <trkpt lat="44.66684" lon="2.64495">
        <ele>499</ele>
        <time>2022-04-28T09:44:35Z</time>
      </trkpt>
      <trkpt lat="44.66683" lon="2.64495">
        <ele>499.2</ele>
        <time>2022-04-28T09:44:36Z</time>
      </trkpt>
      <trkpt lat="44.6668" lon="2.64497">
        <ele>499.2</ele>
        <time>2022-04-28T09:44:42Z</time>
      </trkpt>
      <trkpt lat="44.66678" lon="2.64497">
        <ele>499</ele>
        <time>2022-04-28T09:44:44Z</time>
      </trkpt>
      <trkpt lat="44.66678" lon="2.64498">
        <ele>499</ele>
        <time>2022-04-28T09:44:45Z</time>
      </trkpt>
      <trkpt lat="44.66676" lon="2.64499">
        <ele>499</ele>
        <time>2022-04-28T09:44:47Z</time>
      </trkpt>
      <trkpt lat="44.66674" lon="2.64496">
        <ele>497.6</ele>
        <time>2022-04-28T09:44:54Z</time>
      </trkpt>
      <trkpt lat="44.66673" lon="2.64495">
        <ele>497.4</ele>
        <time>2022-04-28T09:44:57Z</time>
      </trkpt>
      <trkpt lat="44.66668" lon="2.64495">
        <ele>499.2</ele>
        <time>2022-04-28T09:45:06Z</time>
      </trkpt>
      <trkpt lat="44.66663" lon="2.64498">
        <ele>499.6</ele>
        <time>2022-04-28T09:45:12Z</time>
      </trkpt>
      <trkpt lat="44.66662" lon="2.64499">
        <ele>499.6</ele>
        <time>2022-04-28T09:45:13Z</time>
      </trkpt>
      <trkpt lat="44.6666" lon="2.645">
        <ele>499.8</ele>
        <time>2022-04-28T09:45:15Z</time>
      </trkpt>
      <trkpt lat="44.66659" lon="2.64499">
        <ele>500.2</ele>
        <time>2022-04-28T09:45:18Z</time>
      </trkpt>
      <trkpt lat="44.66654" lon="2.64502">
        <ele>500.4</ele>
        <time>2022-04-28T09:45:26Z</time>
      </trkpt>
      <trkpt lat="44.66645" lon="2.64498">
        <ele>501.2</ele>
        <time>2022-04-28T09:45:42Z</time>
      </trkpt>
      <trkpt lat="44.66642" lon="2.64498">
        <ele>502.4</ele>
        <time>2022-04-28T09:45:47Z</time>
      </trkpt>
      <trkpt lat="44.66639" lon="2.64497">
        <ele>502.8</ele>
        <time>2022-04-28T09:45:51Z</time>
      </trkpt>
      <trkpt lat="44.66636" lon="2.64499">
        <ele>503.6</ele>
        <time>2022-04-28T09:45:56Z</time>
      </trkpt>
      <trkpt lat="44.66635" lon="2.645">
        <ele>503.8</ele>
        <time>2022-04-28T09:45:58Z</time>
      </trkpt>
      <trkpt lat="44.66631" lon="2.64499">
        <ele>504.6</ele>
        <time>2022-04-28T09:46:07Z</time>
      </trkpt>
      <trkpt lat="44.66627" lon="2.64496">
        <ele>505.2</ele>
        <time>2022-04-28T09:46:11Z</time>
      </trkpt>
      <trkpt lat="44.66625" lon="2.64497">
        <ele>505.6</ele>
        <time>2022-04-28T09:46:13Z</time>
      </trkpt>
      <trkpt lat="44.66624" lon="2.64497">
        <ele>505.6</ele>
        <time>2022-04-28T09:46:14Z</time>
      </trkpt>
      <trkpt lat="44.66622" lon="2.64496">
        <ele>505.8</ele>
        <time>2022-04-28T09:46:16Z</time>
      </trkpt>
      <trkpt lat="44.6662" lon="2.64496">
        <ele>506.2</ele>
        <time>2022-04-28T09:46:18Z</time>
      </trkpt>
      <trkpt lat="44.66617" lon="2.64493">
        <ele>506.8</ele>
        <time>2022-04-28T09:46:23Z</time>
      </trkpt>
      <trkpt lat="44.66616" lon="2.64493">
        <ele>507</ele>
        <time>2022-04-28T09:46:24Z</time>
      </trkpt>
      <trkpt lat="44.66614" lon="2.64492">
        <ele>508</ele>
        <time>2022-04-28T09:46:27Z</time>
      </trkpt>
      <trkpt lat="44.6661" lon="2.6449">
        <ele>508.6</ele>
        <time>2022-04-28T09:46:34Z</time>
      </trkpt>
      <trkpt lat="44.66609" lon="2.64489">
        <ele>509.2</ele>
        <time>2022-04-28T09:46:37Z</time>
      </trkpt>
      <trkpt lat="44.66608" lon="2.64488">
        <ele>509.6</ele>
        <time>2022-04-28T09:46:40Z</time>
      </trkpt>
      <trkpt lat="44.66608" lon="2.64488">
        <ele>509.8</ele>
        <time>2022-04-28T09:46:41Z</time>
      </trkpt>
      <trkpt lat="44.66607" lon="2.64487">
        <ele>510.2</ele>
        <time>2022-04-28T09:46:44Z</time>
      </trkpt>
      <trkpt lat="44.66601" lon="2.64487">
        <ele>511.2</ele>
        <time>2022-04-28T09:46:52Z</time>
      </trkpt>
      <trkpt lat="44.66599" lon="2.64487">
        <ele>511.6</ele>
        <time>2022-04-28T09:46:55Z</time>
      </trkpt>
      <trkpt lat="44.66594" lon="2.64489">
        <ele>512</ele>
        <time>2022-04-28T09:47:00Z</time>
      </trkpt>
      <trkpt lat="44.66593" lon="2.64489">
        <ele>512.2</ele>
        <time>2022-04-28T09:47:02Z</time>
      </trkpt>
      <trkpt lat="44.66592" lon="2.6449">
        <ele>512.4</ele>
        <time>2022-04-28T09:47:05Z</time>
      </trkpt>
      <trkpt lat="44.6659" lon="2.6449">
        <ele>513.8</ele>
        <time>2022-04-28T09:47:07Z</time>
      </trkpt>
      <trkpt lat="44.66585" lon="2.64489">
        <ele>513.8</ele>
        <time>2022-04-28T09:47:18Z</time>
      </trkpt>
      <trkpt lat="44.66582" lon="2.64487">
        <ele>513.8</ele>
        <time>2022-04-28T09:47:33Z</time>
      </trkpt>
      <trkpt lat="44.66575" lon="2.64483">
        <ele>513.8</ele>
        <time>2022-04-28T09:47:45Z</time>
      </trkpt>
      <trkpt lat="44.66573" lon="2.64481">
        <ele>513.8</ele>
        <time>2022-04-28T09:47:54Z</time>
      </trkpt>
      <trkpt lat="44.66569" lon="2.64488">
        <ele>513.8</ele>
        <time>2022-04-28T09:48:05Z</time>
      </trkpt>
      <trkpt lat="44.66568" lon="2.64488">
        <ele>517.8</ele>
        <time>2022-04-28T09:48:07Z</time>
      </trkpt>
      <trkpt lat="44.66568" lon="2.64488">
        <ele>517.8</ele>
        <time>2022-04-28T09:48:08Z</time>
      </trkpt>
      <trkpt lat="44.66563" lon="2.64486">
        <ele>518.6</ele>
        <time>2022-04-28T09:48:20Z</time>
      </trkpt>
      <trkpt lat="44.66563" lon="2.64487">
        <ele>518.8</ele>
        <time>2022-04-28T09:48:23Z</time>
      </trkpt>
      <trkpt lat="44.6656" lon="2.64485">
        <ele>518.8</ele>
        <time>2022-04-28T09:48:32Z</time>
      </trkpt>
      <trkpt lat="44.66554" lon="2.64481">
        <ele>519.6</ele>
        <time>2022-04-28T09:48:43Z</time>
      </trkpt>
      <trkpt lat="44.66554" lon="2.6448">
        <ele>519.8</ele>
        <time>2022-04-28T09:48:45Z</time>
      </trkpt>
      <trkpt lat="44.6655" lon="2.64477">
        <ele>520</ele>
        <time>2022-04-28T09:48:56Z</time>
      </trkpt>
      <trkpt lat="44.6655" lon="2.64473">
        <ele>521</ele>
        <time>2022-04-28T09:49:06Z</time>
      </trkpt>
      <trkpt lat="44.66549" lon="2.64472">
        <ele>521.2</ele>
        <time>2022-04-28T09:49:08Z</time>
      </trkpt>
      <trkpt lat="44.66546" lon="2.64469">
        <ele>522</ele>
        <time>2022-04-28T09:49:16Z</time>
      </trkpt>
      <trkpt lat="44.66545" lon="2.64469">
        <ele>523.6</ele>
        <time>2022-04-28T09:49:18Z</time>
      </trkpt>
      <trkpt lat="44.66544" lon="2.64469">
        <ele>523.6</ele>
        <time>2022-04-28T09:49:19Z</time>
      </trkpt>
      <trkpt lat="44.66543" lon="2.64469">
        <ele>523.6</ele>
        <time>2022-04-28T09:49:20Z</time>
      </trkpt>
      <trkpt lat="44.66542" lon="2.6447">
        <ele>523.8</ele>
        <time>2022-04-28T09:49:23Z</time>
      </trkpt>
      <trkpt lat="44.66541" lon="2.64473">
        <ele>524.4</ele>
        <time>2022-04-28T09:49:27Z</time>
      </trkpt>
      <trkpt lat="44.66541" lon="2.64473">
        <ele>524.6</ele>
        <time>2022-04-28T09:49:28Z</time>
      </trkpt>
      <trkpt lat="44.66542" lon="2.64474">
        <ele>524.8</ele>
        <time>2022-04-28T09:49:29Z</time>
      </trkpt>
      <trkpt lat="44.66542" lon="2.64475">
        <ele>524.8</ele>
        <time>2022-04-28T09:49:30Z</time>
      </trkpt>
      <trkpt lat="44.66542" lon="2.64477">
        <ele>525</ele>
        <time>2022-04-28T09:49:31Z</time>
      </trkpt>
      <trkpt lat="44.66544" lon="2.64481">
        <ele>525.4</ele>
        <time>2022-04-28T09:49:35Z</time>
      </trkpt>
      <trkpt lat="44.66545" lon="2.64482">
        <ele>525.4</ele>
        <time>2022-04-28T09:49:37Z</time>
      </trkpt>
      <trkpt lat="44.66548" lon="2.64486">
        <ele>525.6</ele>
        <time>2022-04-28T09:49:40Z</time>
      </trkpt>
      <trkpt lat="44.66548" lon="2.64487">
        <ele>525.6</ele>
        <time>2022-04-28T09:49:41Z</time>
      </trkpt>
      <trkpt lat="44.66552" lon="2.64491">
        <ele>525.8</ele>
        <time>2022-04-28T09:49:45Z</time>
      </trkpt>
      <trkpt lat="44.66556" lon="2.64497">
        <ele>526.6</ele>
        <time>2022-04-28T09:49:51Z</time>
      </trkpt>
      <trkpt lat="44.66558" lon="2.64499">
        <ele>526.8</ele>
        <time>2022-04-28T09:49:53Z</time>
      </trkpt>
      <trkpt lat="44.6656" lon="2.64503">
        <ele>527.6</ele>
        <time>2022-04-28T09:49:58Z</time>
      </trkpt>
      <trkpt lat="44.66565" lon="2.64511">
        <ele>528.8</ele>
        <time>2022-04-28T09:50:06Z</time>
      </trkpt>
      <trkpt lat="44.66565" lon="2.64511">
        <ele>528.8</ele>
        <time>2022-04-28T09:50:07Z</time>
      </trkpt>
      <trkpt lat="44.66565" lon="2.64511">
        <ele>529.8</ele>
        <time>2022-04-28T09:50:12Z</time>
      </trkpt>
      <trkpt lat="44.66564" lon="2.64511">
        <ele>530</ele>
        <time>2022-04-28T09:50:15Z</time>
      </trkpt>
      <trkpt lat="44.66565" lon="2.64511">
        <ele>529.4</ele>
        <time>2022-04-28T09:50:27Z</time>
      </trkpt>
      <trkpt lat="44.66566" lon="2.64516">
        <ele>529.6</ele>
        <time>2022-04-28T09:50:35Z</time>
      </trkpt>
      <trkpt lat="44.66566" lon="2.64518">
        <ele>530.2</ele>
        <time>2022-04-28T09:50:49Z</time>
      </trkpt>
      <trkpt lat="44.66564" lon="2.64519">
        <ele>530.2</ele>
        <time>2022-04-28T09:51:08Z</time>
      </trkpt>
      <trkpt lat="44.66565" lon="2.64518">
        <ele>530.2</ele>
        <time>2022-04-28T09:51:26Z</time>
      </trkpt>
      <trkpt lat="44.66566" lon="2.64517">
        <ele>530.2</ele>
        <time>2022-04-28T09:51:39Z</time>
      </trkpt>
      <trkpt lat="44.6657" lon="2.6452">
        <ele>530.2</ele>
        <time>2022-04-28T09:51:48Z</time>
      </trkpt>
      <trkpt lat="44.6657" lon="2.64523">
        <ele>530.2</ele>
        <time>2022-04-28T09:52:00Z</time>
      </trkpt>
      <trkpt lat="44.66579" lon="2.64534">
        <ele>530.2</ele>
        <time>2022-04-28T09:52:12Z</time>
      </trkpt>
      <trkpt lat="44.66583" lon="2.64539">
        <ele>531</ele>
        <time>2022-04-28T09:52:17Z</time>
      </trkpt>
      <trkpt lat="44.66586" lon="2.64544">
        <ele>531.6</ele>
        <time>2022-04-28T09:52:24Z</time>
      </trkpt>
      <trkpt lat="44.66586" lon="2.64544">
        <ele>531.8</ele>
        <time>2022-04-28T09:52:26Z</time>
      </trkpt>
      <trkpt lat="44.66588" lon="2.64545">
        <ele>531.6</ele>
        <time>2022-04-28T09:52:38Z</time>
      </trkpt>
      <trkpt lat="44.66589" lon="2.64547">
        <ele>531.8</ele>
        <time>2022-04-28T09:52:40Z</time>
      </trkpt>
      <trkpt lat="44.66589" lon="2.64548">
        <ele>532</ele>
        <time>2022-04-28T09:52:41Z</time>
      </trkpt>
      <trkpt lat="44.6659" lon="2.64549">
        <ele>532.6</ele>
        <time>2022-04-28T09:52:44Z</time>
      </trkpt>
      <trkpt lat="44.66593" lon="2.64552">
        <ele>532.8</ele>
        <time>2022-04-28T09:52:47Z</time>
      </trkpt>
      <trkpt lat="44.66593" lon="2.64553">
        <ele>532.8</ele>
        <time>2022-04-28T09:52:48Z</time>
      </trkpt>
      <trkpt lat="44.66595" lon="2.64555">
        <ele>533.2</ele>
        <time>2022-04-28T09:52:50Z</time>
      </trkpt>
      <trkpt lat="44.66602" lon="2.64564">
        <ele>534.4</ele>
        <time>2022-04-28T09:53:00Z</time>
      </trkpt>
      <trkpt lat="44.66603" lon="2.64566">
        <ele>534.6</ele>
        <time>2022-04-28T09:53:02Z</time>
      </trkpt>
      <trkpt lat="44.66606" lon="2.6457">
        <ele>535.4</ele>
        <time>2022-04-28T09:53:07Z</time>
      </trkpt>
      <trkpt lat="44.66609" lon="2.64576">
        <ele>536.6</ele>
        <time>2022-04-28T09:53:14Z</time>
      </trkpt>
      <trkpt lat="44.66611" lon="2.64579">
        <ele>537</ele>
        <time>2022-04-28T09:53:16Z</time>
      </trkpt>
      <trkpt lat="44.66616" lon="2.64581">
        <ele>537.6</ele>
        <time>2022-04-28T09:53:20Z</time>
      </trkpt>
      <trkpt lat="44.66622" lon="2.64587">
        <ele>538.4</ele>
        <time>2022-04-28T09:53:27Z</time>
      </trkpt>
      <trkpt lat="44.66624" lon="2.64588">
        <ele>538.6</ele>
        <time>2022-04-28T09:53:29Z</time>
      </trkpt>
      <trkpt lat="44.66632" lon="2.6459">
        <ele>539.6</ele>
        <time>2022-04-28T09:53:37Z</time>
      </trkpt>
      <trkpt lat="44.66634" lon="2.64591">
        <ele>540</ele>
        <time>2022-04-28T09:53:40Z</time>
      </trkpt>
      <trkpt lat="44.66644" lon="2.64592">
        <ele>540.8</ele>
        <time>2022-04-28T09:53:53Z</time>
      </trkpt>
      <trkpt lat="44.66645" lon="2.64592">
        <ele>540.8</ele>
        <time>2022-04-28T09:53:54Z</time>
      </trkpt>
      <trkpt lat="44.66649" lon="2.64592">
        <ele>541.6</ele>
        <time>2022-04-28T09:54:03Z</time>
      </trkpt>
      <trkpt lat="44.66649" lon="2.64591">
        <ele>541.6</ele>
        <time>2022-04-28T09:54:06Z</time>
      </trkpt>
      <trkpt lat="44.66654" lon="2.6459">
        <ele>541.4</ele>
        <time>2022-04-28T09:54:17Z</time>
      </trkpt>
      <trkpt lat="44.6666" lon="2.64594">
        <ele>541.6</ele>
        <time>2022-04-28T09:54:22Z</time>
      </trkpt>
      <trkpt lat="44.66663" lon="2.64595">
        <ele>541.8</ele>
        <time>2022-04-28T09:54:24Z</time>
      </trkpt>
      <trkpt lat="44.66667" lon="2.64595">
        <ele>542</ele>
        <time>2022-04-28T09:54:27Z</time>
      </trkpt>
      <trkpt lat="44.66676" lon="2.64597">
        <ele>543</ele>
        <time>2022-04-28T09:54:35Z</time>
      </trkpt>
      <trkpt lat="44.66683" lon="2.64599">
        <ele>543.8</ele>
        <time>2022-04-28T09:54:40Z</time>
      </trkpt>
      <trkpt lat="44.66686" lon="2.64599">
        <ele>544.2</ele>
        <time>2022-04-28T09:54:42Z</time>
      </trkpt>
      <trkpt lat="44.66691" lon="2.64599">
        <ele>544.8</ele>
        <time>2022-04-28T09:54:47Z</time>
      </trkpt>
      <trkpt lat="44.66697" lon="2.64601">
        <ele>545.2</ele>
        <time>2022-04-28T09:54:53Z</time>
      </trkpt>
      <trkpt lat="44.66699" lon="2.64601">
        <ele>545.4</ele>
        <time>2022-04-28T09:54:55Z</time>
      </trkpt>
      <trkpt lat="44.66706" lon="2.64601">
        <ele>546.2</ele>
        <time>2022-04-28T09:55:01Z</time>
      </trkpt>
      <trkpt lat="44.66712" lon="2.646">
        <ele>546.8</ele>
        <time>2022-04-28T09:55:06Z</time>
      </trkpt>
      <trkpt lat="44.66718" lon="2.646">
        <ele>547.4</ele>
        <time>2022-04-28T09:55:12Z</time>
      </trkpt>
      <trkpt lat="44.66723" lon="2.646">
        <ele>548</ele>
        <time>2022-04-28T09:55:16Z</time>
      </trkpt>
      <trkpt lat="44.66731" lon="2.646">
        <ele>548.4</ele>
        <time>2022-04-28T09:55:22Z</time>
      </trkpt>
      <trkpt lat="44.66736" lon="2.646">
        <ele>549</ele>
        <time>2022-04-28T09:55:26Z</time>
      </trkpt>
      <trkpt lat="44.66738" lon="2.646">
        <ele>549.4</ele>
        <time>2022-04-28T09:55:28Z</time>
      </trkpt>
      <trkpt lat="44.66745" lon="2.64598">
        <ele>550.2</ele>
        <time>2022-04-28T09:55:34Z</time>
      </trkpt>
      <trkpt lat="44.66748" lon="2.64597">
        <ele>550.6</ele>
        <time>2022-04-28T09:55:39Z</time>
      </trkpt>
      <trkpt lat="44.6675" lon="2.64596">
        <ele>550.8</ele>
        <time>2022-04-28T09:55:42Z</time>
      </trkpt>
      <trkpt lat="44.66751" lon="2.64595">
        <ele>551</ele>
        <time>2022-04-28T09:55:43Z</time>
      </trkpt>
      <trkpt lat="44.66757" lon="2.64592">
        <ele>551.6</ele>
        <time>2022-04-28T09:55:48Z</time>
      </trkpt>
      <trkpt lat="44.66759" lon="2.64588">
        <ele>552</ele>
        <time>2022-04-28T09:55:52Z</time>
      </trkpt>
      <trkpt lat="44.6676" lon="2.64587">
        <ele>552</ele>
        <time>2022-04-28T09:55:54Z</time>
      </trkpt>
      <trkpt lat="44.6676" lon="2.64586">
        <ele>552.2</ele>
        <time>2022-04-28T09:55:56Z</time>
      </trkpt>
      <trkpt lat="44.6676" lon="2.64584">
        <ele>552.6</ele>
        <time>2022-04-28T09:56:00Z</time>
      </trkpt>
      <trkpt lat="44.6676" lon="2.64584">
        <ele>552.8</ele>
        <time>2022-04-28T09:56:01Z</time>
      </trkpt>
      <trkpt lat="44.6676" lon="2.64584">
        <ele>552.4</ele>
        <time>2022-04-28T09:56:12Z</time>
      </trkpt>
      <trkpt lat="44.66761" lon="2.64586">
        <ele>552.6</ele>
        <time>2022-04-28T09:56:27Z</time>
      </trkpt>
      <trkpt lat="44.66761" lon="2.64585">
        <ele>553.2</ele>
        <time>2022-04-28T09:56:46Z</time>
      </trkpt>
      <trkpt lat="44.66761" lon="2.64586">
        <ele>553</ele>
        <time>2022-04-28T09:57:05Z</time>
      </trkpt>
      <trkpt lat="44.6676" lon="2.64589">
        <ele>551.8</ele>
        <time>2022-04-28T09:57:14Z</time>
      </trkpt>
      <trkpt lat="44.66758" lon="2.64591">
        <ele>551.6</ele>
        <time>2022-04-28T09:57:17Z</time>
      </trkpt>
      <trkpt lat="44.66752" lon="2.64594">
        <ele>551.2</ele>
        <time>2022-04-28T09:57:24Z</time>
      </trkpt>
      <trkpt lat="44.66749" lon="2.64595">
        <ele>550.8</ele>
        <time>2022-04-28T09:57:27Z</time>
      </trkpt>
      <trkpt lat="44.66747" lon="2.64596">
        <ele>550.8</ele>
        <time>2022-04-28T09:57:28Z</time>
      </trkpt>
      <trkpt lat="44.66745" lon="2.64597">
        <ele>550.4</ele>
        <time>2022-04-28T09:57:30Z</time>
      </trkpt>
      <trkpt lat="44.66735" lon="2.646">
        <ele>549.8</ele>
        <time>2022-04-28T09:57:38Z</time>
      </trkpt>
      <trkpt lat="44.66729" lon="2.646">
        <ele>548.8</ele>
        <time>2022-04-28T09:57:44Z</time>
      </trkpt>
      <trkpt lat="44.66728" lon="2.646">
        <ele>548.8</ele>
        <time>2022-04-28T09:57:45Z</time>
      </trkpt>
      <trkpt lat="44.66725" lon="2.64601">
        <ele>548.4</ele>
        <time>2022-04-28T09:57:49Z</time>
      </trkpt>
      <trkpt lat="44.66721" lon="2.64603">
        <ele>548.2</ele>
        <time>2022-04-28T09:57:54Z</time>
      </trkpt>
      <trkpt lat="44.66715" lon="2.64603">
        <ele>547.8</ele>
        <time>2022-04-28T09:58:00Z</time>
      </trkpt>
      <trkpt lat="44.6671" lon="2.64604">
        <ele>547.2</ele>
        <time>2022-04-28T09:58:04Z</time>
      </trkpt>
      <trkpt lat="44.66701" lon="2.64602">
        <ele>546.6</ele>
        <time>2022-04-28T09:58:12Z</time>
      </trkpt>
      <trkpt lat="44.66693" lon="2.64603">
        <ele>545.6</ele>
        <time>2022-04-28T09:58:19Z</time>
      </trkpt>
      <trkpt lat="44.66691" lon="2.64603">
        <ele>545.6</ele>
        <time>2022-04-28T09:58:21Z</time>
      </trkpt>
      <trkpt lat="44.66683" lon="2.64602">
        <ele>544.6</ele>
        <time>2022-04-28T09:58:29Z</time>
      </trkpt>
      <trkpt lat="44.66676" lon="2.646">
        <ele>543.6</ele>
        <time>2022-04-28T09:58:35Z</time>
      </trkpt>
      <trkpt lat="44.66673" lon="2.64599">
        <ele>543.6</ele>
        <time>2022-04-28T09:58:38Z</time>
      </trkpt>
      <trkpt lat="44.66663" lon="2.64596">
        <ele>542.6</ele>
        <time>2022-04-28T09:58:48Z</time>
      </trkpt>
      <trkpt lat="44.66662" lon="2.64595">
        <ele>542.4</ele>
        <time>2022-04-28T09:58:49Z</time>
      </trkpt>
      <trkpt lat="44.66654" lon="2.64588">
        <ele>541.4</ele>
        <time>2022-04-28T09:58:58Z</time>
      </trkpt>
      <trkpt lat="44.66652" lon="2.64586">
        <ele>541.2</ele>
        <time>2022-04-28T09:59:00Z</time>
      </trkpt>
      <trkpt lat="44.66648" lon="2.64584">
        <ele>541.2</ele>
        <time>2022-04-28T09:59:07Z</time>
      </trkpt>
      <trkpt lat="44.66648" lon="2.64585">
        <ele>541</ele>
        <time>2022-04-28T09:59:10Z</time>
      </trkpt>
      <trkpt lat="44.6665" lon="2.64584">
        <ele>541</ele>
        <time>2022-04-28T09:59:26Z</time>
      </trkpt>
      <trkpt lat="44.66651" lon="2.64582">
        <ele>541.4</ele>
        <time>2022-04-28T09:59:43Z</time>
      </trkpt>
      <trkpt lat="44.66652" lon="2.64582">
        <ele>541.4</ele>
        <time>2022-04-28T10:00:00Z</time>
      </trkpt>
      <trkpt lat="44.66652" lon="2.64582">
        <ele>541.4</ele>
        <time>2022-04-28T10:00:15Z</time>
      </trkpt>
      <trkpt lat="44.66652" lon="2.64583">
        <ele>540.4</ele>
        <time>2022-04-28T10:00:20Z</time>
      </trkpt>
      <trkpt lat="44.66651" lon="2.64583">
        <ele>540.4</ele>
        <time>2022-04-28T10:00:21Z</time>
      </trkpt>
      <trkpt lat="44.6665" lon="2.64583">
        <ele>540.8</ele>
        <time>2022-04-28T10:00:33Z</time>
      </trkpt>
      <trkpt lat="44.6665" lon="2.64583">
        <ele>541</ele>
        <time>2022-04-28T10:00:36Z</time>
      </trkpt>
    </trkseg>
  </trk>
</gpx>